Observation data for Palo Duro Canyon State Park Rim on 11/11/2019      Previous  Date       Current Mesonet Observations  Soil Data  Daily Summary Page  Observations in Plain Language
KPD1 110600Z 34010KT 12/M02 A2989 RMK A01 T01241016  RH  038%=      5-min Rain = 0
KPD1 110601Z 35009KT 12/M02 A2989 RMK A01 T01241016  RH  038%=      5-min Rain = 0
KPD1 110602Z 34011KT 12/M02 A2989 RMK A01 T01241016  RH  038%=      5-min Rain = 0
KPD1 110603Z 34009KT 12/M02 A2989 RMK A01 T01241016  RH  038%=      5-min Rain = 0
KPD1 110604Z 34010KT 12/M02 A2989 RMK A01 T01241016  RH  038%=      5-min Rain = 0
KPD1 110605Z 34010KT 12/M02 A2989 RMK A01 T01241017  RH  037%=      5-min Rain = 0
KPD1 110606Z 34009KT 13/M02 A2989 RMK A01 T01251017  RH  037%=      5-min Rain = 0
KPD1 110607Z 34010KT 13/M02 A2989 RMK A01 T01261017  RH  037%=      5-min Rain = 0
KPD1 110608Z 34009KT 13/M02 A2989 RMK A01 T01261017  RH  037%=      5-min Rain = 0
KPD1 110609Z 34009G14KT 13/M02 A2989 RMK A01 T01261017  RH  037%=      5-min Rain = 0
KPD1 110610Z 34011KT 13/M02 A2989 RMK A01 T01261017  RH  037%=      5-min Rain = 0
KPD1 110611Z 33009KT 13/M02 A2989 RMK A01 T01261017  RH  037%=      5-min Rain = 0
KPD1 110612Z 33007KT 13/M02 A2989 RMK A01 T01251017  RH  037%=      5-min Rain = 0
KPD1 110613Z 33007KT 12/M02 A299 RMK A01 T01241017  RH  038%=      5-min Rain = 0
KPD1 110614Z 33009KT 12/M02 A299 RMK A01 T01221016  RH  038%=      5-min Rain = 0
KPD1 110615Z 33010KT 12/M02 A299 RMK A01 T01191016  RH  039%=      5-min Rain = 0
KPD1 110616Z 33011KT 12/M02 A299 RMK A01 T01171015  RH  040%=      5-min Rain = 0
KPD1 110617Z 32011KT 11/M02 A299 RMK A01 T01141015  RH  041%=      5-min Rain = 0
KPD1 110618Z 32012KT 11/M02 A299 RMK A01 T01131015  RH  041%=      5-min Rain = 0
KPD1 110619Z 33012KT 11/M01 A299 RMK A01 T01111014  RH  042%=      5-min Rain = 0
KPD1 110620Z 33014KT 11/M01 A299 RMK A01 T01101014  RH  042%=      5-min Rain = 0
KPD1 110621Z 33013KT 11/M01 A299 RMK A01 T01081014  RH  043%=      5-min Rain = 0
KPD1 110622Z 33014KT 11/M01 A299 RMK A01 T01071013  RH  043%=      5-min Rain = 0
KPD1 110623Z 33014KT 11/M01 A299 RMK A01 T01051012  RH  044%=      5-min Rain = 0
KPD1 110624Z 33013KT 10/M01 A299 RMK A01 T01041012  RH  044%=      5-min Rain = 0
KPD1 110625Z 33015G20KT 10/M01 A299 RMK A01 T01031011  RH  045%=      5-min Rain = 0
KPD1 110626Z 34015KT 10/M01 A299 RMK A01 T01031009  RH  046%=      5-min Rain = 0
KPD1 110627Z 34014G20KT 10/M01 A299 RMK A01 T01011009  RH  046%=      5-min Rain = 0
KPD1 110628Z 34013KT 10/M01 A299 RMK A01 T00991008  RH  047%=      5-min Rain = 0
KPD1 110629Z 34012G17KT 10/M01 A299 RMK A01 T00981008  RH  048%=      5-min Rain = 0
KPD1 110630Z 34011KT 10/M01 A299 RMK A01 T00971007  RH  048%=      5-min Rain = 0
KPD1 110631Z 34011KT 10/M01 A299 RMK A01 T00971006  RH  049%=      5-min Rain = 0
KPD1 110632Z 34010KT 10/M01 A299 RMK A01 T00961006  RH  049%=      5-min Rain = 0
KPD1 110633Z 34013KT 10/M01 A299 RMK A01 T00951005  RH  050%=      5-min Rain = 0
KPD1 110634Z 35014KT 10/M00 A299 RMK A01 T00951003  RH  051%=      5-min Rain = 0
KPD1 110635Z 34014KT 09/M00 A299 RMK A01 T00941001  RH  051%=      5-min Rain = 0
KPD1 110636Z 35014KT 09/00 A299 RMK A01 T009400-0  RH  052%=      5-min Rain = 0
KPD1 110637Z 35011KT 09/00 A299 RMK A01 T009300-0  RH  052%=      5-min Rain = 0
KPD1 110638Z 35012G17KT 09/00 A299 RMK A01 T00920000  RH  052%=      5-min Rain = 0
KPD1 110639Z 35014G20KT 09/00 A299 RMK A01 T00920000  RH  053%=      5-min Rain = 0
KPD1 110640Z 35012G17KT 09/00 A299 RMK A01 T00910001  RH  053%=      5-min Rain = 0
KPD1 110641Z 35012KT 09/00 A299 RMK A01 T00910001  RH  053%=      5-min Rain = 0
KPD1 110642Z 35014G19KT 09/00 A299 RMK A01 T00900001  RH  054%=      5-min Rain = 0
KPD1 110643Z 35013G18KT 09/00 A299 RMK A01 T00900001  RH  054%=      5-min Rain = 0
KPD1 110644Z 34013KT 09/00 A299 RMK A01 T00890001  RH  054%=      5-min Rain = 0
KPD1 110645Z 35013KT 09/00 A299 RMK A01 T00890001  RH  054%=      5-min Rain = 0
KPD1 110646Z 34016G21KT 09/00 A299 RMK A01 T00880002  RH  055%=      5-min Rain = 0
KPD1 110647Z 35014KT 09/00 A299 RMK A01 T00880001  RH  055%=      5-min Rain = 0
KPD1 110648Z 35012G17KT 09/00 A299 RMK A01 T00870002  RH  055%=      5-min Rain = 0
KPD1 110649Z 34013KT 09/00 A299 RMK A01 T00870002  RH  055%=      5-min Rain = 0
KPD1 110650Z 35013KT 09/00 A299 RMK A01 T00860002  RH  055%=      5-min Rain = 0
KPD1 110651Z 34015G21KT 09/00 A299 RMK A01 T00850002  RH  056%=      5-min Rain = 0
KPD1 110652Z 34014KT 09/00 A2991 RMK A01 T00850002  RH  056%=      5-min Rain = 0
KPD1 110653Z 33014KT 09/00 A2991 RMK A01 T00850002  RH  056%=      5-min Rain = 0
KPD1 110654Z 34014G19KT 08/00 A2991 RMK A01 T00840002  RH  056%=      5-min Rain = 0
KPD1 110655Z 34015KT 08/00 A2991 RMK A01 T00840002  RH  056%=      5-min Rain = 0
KPD1 110656Z 35016KT 08/00 A2991 RMK A01 T00830001  RH  056%=      5-min Rain = 0
KPD1 110657Z 34016G21KT 08/00 A2991 RMK A01 T00830001  RH  056%=      5-min Rain = 0
KPD1 110658Z 35011G16KT 08/00 A2991 RMK A01 T00830001  RH  056%=      5-min Rain = 0
KPD1 110659Z 34016KT 08/00 A2992 RMK A01 T00820001  RH  057%=      5-min Rain = 0
KPD1 110700Z 35015G21KT 08/00 A2992 RMK A01 T00810001  RH  057%=      5-min Rain = 0
KPD1 110701Z 35015KT 08/00 A2992 RMK A01 T00800000  RH  057%=      5-min Rain = 0
KPD1 110702Z 35012G17KT 08/00 A2992 RMK A01 T00790000  RH  057%=      5-min Rain = 0
KPD1 110703Z 35012KT 08/00 A2992 RMK A01 T007900-0  RH  057%=      5-min Rain = 0
KPD1 110704Z 35013KT 08/00 A2992 RMK A01 T007800-0  RH  058%=      5-min Rain = 0
KPD1 110705Z 34016G22KT 08/M00 A2992 RMK A01 T00771001  RH  058%=      5-min Rain = 0
KPD1 110706Z 35015G20KT 08/M00 A2992 RMK A01 T00771001  RH  058%=      5-min Rain = 0
KPD1 110707Z 34013G19KT 08/M00 A2992 RMK A01 T00761001  RH  058%=      5-min Rain = 0
KPD1 110708Z 34015G20KT 08/M00 A2992 RMK A01 T00761001  RH  058%=      5-min Rain = 0
KPD1 110709Z 34016KT 08/M00 A2992 RMK A01 T00751001  RH  058%=      5-min Rain = 0
KPD1 110710Z 34014KT 07/M00 A2993 RMK A01 T00741001  RH  059%=      5-min Rain = 0
KPD1 110711Z 34016KT 07/M00 A2993 RMK A01 T00741001  RH  059%=      5-min Rain = 0
KPD1 110712Z 36017KT 07/M00 A2993 RMK A01 T00731001  RH  059%=      5-min Rain = 0
KPD1 110713Z 35012G17KT 07/M00 A2993 RMK A01 T00721002  RH  059%=      5-min Rain = 0
KPD1 110714Z 35011G17KT 07/M00 A2993 RMK A01 T00711002  RH  060%=      5-min Rain = 0
KPD1 110715Z 35014KT 07/M00 A2993 RMK A01 T00701002  RH  060%=      5-min Rain = 0
KPD1 110716Z 36016KT 07/M00 A2993 RMK A01 T00701001  RH  060%=      5-min Rain = 0
KPD1 110717Z 35015KT 07/M00 A2993 RMK A01 T00691001  RH  061%=      5-min Rain = 0
KPD1 110718Z 35015KT 07/M00 A2993 RMK A01 T00691001  RH  061%=      5-min Rain = 0
KPD1 110719Z 35018KT 07/00 A2993 RMK A01 T006800-0  RH  062%=      5-min Rain = 0
KPD1 110720Z 35015G20KT 07/00 A2993 RMK A01 T00680001  RH  062%=      5-min Rain = 0
KPD1 110721Z 35014KT 07/00 A2993 RMK A01 T00670000  RH  062%=      5-min Rain = 0
KPD1 110722Z 35018KT 07/00 A2993 RMK A01 T00670001  RH  063%=      5-min Rain = 0
KPD1 110723Z 35016KT 07/00 A2993 RMK A01 T00660001  RH  063%=      5-min Rain = 0
KPD1 110724Z 35015G20KT 07/00 A2993 RMK A01 T00660002  RH  063%=      5-min Rain = 0
KPD1 110725Z 35015G22KT 07/00 A2993 RMK A01 T00660002  RH  064%=      5-min Rain = 0
KPD1 110726Z 35016KT 07/00 A2993 RMK A01 T00660002  RH  064%=      5-min Rain = 0
KPD1 110727Z 35015KT 07/00 A2993 RMK A01 T00650003  RH  064%=      5-min Rain = 0
KPD1 110728Z 35014KT 07/00 A2993 RMK A01 T00650003  RH  064%=      5-min Rain = 0
KPD1 110729Z 35015G22KT 07/00 A2993 RMK A01 T00650003  RH  065%=      5-min Rain = 0
KPD1 110730Z 35015KT 06/00 A2993 RMK A01 T00640003  RH  065%=      5-min Rain = 0
KPD1 110731Z 35017G22KT 07/00 A2993 RMK A01 T00650004  RH  065%=      5-min Rain = 0
KPD1 110732Z 35016G23KT 06/00 A2993 RMK A01 T00640004  RH  066%=      5-min Rain = 0
KPD1 110733Z 35016G24KT 06/00 A2993 RMK A01 T00640004  RH  066%=      5-min Rain = 0
KPD1 110734Z 35012G17KT 06/01 A2993 RMK A01 T00640005  RH  066%=      5-min Rain = 0
KPD1 110735Z 35014G19KT 06/00 A2993 RMK A01 T00630004  RH  066%=      5-min Rain = 0
KPD1 110736Z 36018G24KT 06/01 A2993 RMK A01 T00640005  RH  066%=      5-min Rain = 0
KPD1 110737Z 35013KT 06/01 A2993 RMK A01 T00630005  RH  066%=      5-min Rain = 0
KPD1 110738Z 35014KT 06/01 A2993 RMK A01 T00630006  RH  067%=      5-min Rain = 0
KPD1 110739Z 35015G21KT 06/01 A2993 RMK A01 T00630005  RH  067%=      5-min Rain = 0
KPD1 110740Z 00013G19KT 06/01 A2993 RMK A01 T00620006  RH  067%=      5-min Rain = 0
KPD1 110741Z 35014G19KT 06/01 A2993 RMK A01 T00620006  RH  067%=      5-min Rain = 0
KPD1 110742Z 36015KT 06/01 A2994 RMK A01 T00620006  RH  067%=      5-min Rain = 0
KPD1 110743Z 35021KT 06/01 A2994 RMK A01 T00620006  RH  068%=      5-min Rain = 0
KPD1 110744Z 35016G22KT 06/01 A2994 RMK A01 T00620006  RH  068%=      5-min Rain = 0
KPD1 110745Z 35014KT 06/01 A2994 RMK A01 T00620007  RH  068%=      5-min Rain = 0
KPD1 110746Z 36014G20KT 06/01 A2994 RMK A01 T00610006  RH  068%=      5-min Rain = 0
KPD1 110747Z 36013KT 06/01 A2994 RMK A01 T00620007  RH  068%=      5-min Rain = 0
KPD1 110748Z 35016KT 06/01 A2994 RMK A01 T00610007  RH  068%=      5-min Rain = 0
KPD1 110749Z 35014G21KT 06/01 A2994 RMK A01 T00610007  RH  068%=      5-min Rain = 0
KPD1 110750Z 35014G20KT 06/01 A2994 RMK A01 T00610007  RH  068%=      5-min Rain = 0
KPD1 110751Z 36014KT 06/01 A2994 RMK A01 T00600007  RH  068%=      5-min Rain = 0
KPD1 110752Z 35013KT 06/01 A2994 RMK A01 T00600007  RH  069%=      5-min Rain = 0
KPD1 110753Z 35012G17KT 06/01 A2995 RMK A01 T00590006  RH  069%=      5-min Rain = 0
KPD1 110754Z 35016KT 06/01 A2995 RMK A01 T00590006  RH  069%=      5-min Rain = 0
KPD1 110755Z 35014G19KT 06/01 A2995 RMK A01 T00590006  RH  069%=      5-min Rain = 0
KPD1 110756Z 35015KT 06/01 A2995 RMK A01 T00590007  RH  069%=      5-min Rain = 0
KPD1 110757Z 35015KT 06/01 A2995 RMK A01 T00590006  RH  069%=      5-min Rain = 0
KPD1 110758Z 35014KT 06/01 A2995 RMK A01 T00580006  RH  069%=      5-min Rain = 0
KPD1 110759Z 35014G19KT 06/01 A2995 RMK A01 T00580006  RH  069%=      5-min Rain = 0
KPD1 110800Z 35016G21KT 06/01 A2995 RMK A01 T00580006  RH  069%=      5-min Rain = 0
KPD1 110801Z 35014G20KT 06/01 A2995 RMK A01 T00580006  RH  069%=      5-min Rain = 0
KPD1 110802Z 34011KT 06/01 A2995 RMK A01 T00570006  RH  070%=      5-min Rain = 0
KPD1 110803Z 35011G16KT 06/01 A2995 RMK A01 T00570006  RH  070%=      5-min Rain = 0
KPD1 110804Z 35016G21KT 06/01 A2995 RMK A01 T00560006  RH  070%=      5-min Rain = 0
KPD1 110805Z 36017G22KT 06/01 A2995 RMK A01 T00560006  RH  070%=      5-min Rain = 0
KPD1 110806Z 35012KT 06/01 A2996 RMK A01 T00560006  RH  070%=      5-min Rain = 0
KPD1 110807Z 36017KT 06/01 A2996 RMK A01 T00560006  RH  070%=      5-min Rain = 0
KPD1 110808Z 35015G20KT 06/01 A2996 RMK A01 T00570007  RH  070%=      5-min Rain = 0
KPD1 110809Z 00013G20KT 06/01 A2996 RMK A01 T00560006  RH  070%=      5-min Rain = 0
KPD1 110810Z 35013KT 06/01 A2996 RMK A01 T00560006  RH  070%=      5-min Rain = 0
KPD1 110811Z 35010KT 06/01 A2996 RMK A01 T00560006  RH  070%=      5-min Rain = 0
KPD1 110812Z 35012KT 06/01 A2996 RMK A01 T00550006  RH  071%=      5-min Rain = 0
KPD1 110813Z 35012KT 06/01 A2996 RMK A01 T00550006  RH  071%=      5-min Rain = 0
KPD1 110814Z 36014G19KT 06/01 A2996 RMK A01 T00550006  RH  071%=      5-min Rain = 0
KPD1 110815Z 36014G21KT 05/01 A2996 RMK A01 T00540006  RH  071%=      5-min Rain = 0
KPD1 110816Z 35014G19KT 06/01 A2996 RMK A01 T00550006  RH  071%=      5-min Rain = 0
KPD1 110817Z 36013G19KT 05/01 A2997 RMK A01 T00540006  RH  071%=      5-min Rain = 0
KPD1 110818Z 00013KT 05/01 A2997 RMK A01 T00540006  RH  071%=      5-min Rain = 0
KPD1 110819Z 36013G18KT 05/01 A2997 RMK A01 T00540006  RH  071%=      5-min Rain = 0
KPD1 110820Z 36012G17KT 05/01 A2997 RMK A01 T00530006  RH  071%=      5-min Rain = 0
KPD1 110821Z 35011G16KT 05/01 A2997 RMK A01 T00530006  RH  071%=      5-min Rain = 0
KPD1 110822Z 36014G20KT 05/01 A2997 RMK A01 T00530006  RH  071%=      5-min Rain = 0
KPD1 110823Z 00012G17KT 05/01 A2997 RMK A01 T00530005  RH  071%=      5-min Rain = 0
KPD1 110824Z 36012KT 05/01 A2997 RMK A01 T00530006  RH  071%=      5-min Rain = 0
KPD1 110825Z 01017G26KT 05/01 A2997 RMK A01 T00520005  RH  071%=      5-min Rain = 0
KPD1 110826Z 36013KT 05/01 A2998 RMK A01 T00530006  RH  072%=      5-min Rain = 0
KPD1 110827Z 35014G20KT 05/01 A2998 RMK A01 T00530006  RH  072%=      5-min Rain = 0
KPD1 110828Z 36011KT 05/01 A2998 RMK A01 T00520005  RH  072%=      5-min Rain = 0
KPD1 110829Z 01010KT 05/01 A2998 RMK A01 T00520005  RH  072%=      5-min Rain = 0
KPD1 110830Z 00013KT 05/01 A2998 RMK A01 T00520005  RH  072%=      5-min Rain = 0
KPD1 110831Z 00012KT 05/01 A2999 RMK A01 T00520005  RH  072%=      5-min Rain = 0
KPD1 110832Z 00014G20KT 05/01 A2999 RMK A01 T00520006  RH  072%=      5-min Rain = 0
KPD1 110833Z 35012KT 05/01 A2999 RMK A01 T00520005  RH  072%=      5-min Rain = 0
KPD1 110834Z 36014KT 05/01 A2999 RMK A01 T00520005  RH  072%=      5-min Rain = 0
KPD1 110835Z 00015G20KT 05/01 A2999 RMK A01 T00520005  RH  072%=      5-min Rain = 0
KPD1 110836Z 36017KT 05/01 A2999 RMK A01 T00520006  RH  072%=      5-min Rain = 0
KPD1 110837Z 35012G19KT 05/01 A2999 RMK A01 T00520005  RH  072%=      5-min Rain = 0
KPD1 110838Z 01012G17KT 05/01 A2999 RMK A01 T00520006  RH  072%=      5-min Rain = 0
KPD1 110839Z 00012G21KT 05/01 A30 RMK A01 T00520006  RH  072%=      5-min Rain = 0
KPD1 110840Z 35017KT 05/01 A30 RMK A01 T00520006  RH  072%=      5-min Rain = 0
KPD1 110841Z 00014KT 05/01 A30 RMK A01 T00520006  RH  072%=      5-min Rain = 0
KPD1 110842Z 36014KT 05/01 A30 RMK A01 T00520006  RH  072%=      5-min Rain = 0
KPD1 110843Z 35011KT 05/01 A30 RMK A01 T00520006  RH  072%=      5-min Rain = 0
KPD1 110844Z 00015KT 05/01 A30 RMK A01 T00530007  RH  072%=      5-min Rain = 0
KPD1 110845Z 36014G19KT 05/01 A30 RMK A01 T00530007  RH  072%=      5-min Rain = 0
KPD1 110846Z 35013G18KT 05/01 A30 RMK A01 T00520006  RH  072%=      5-min Rain = 0
KPD1 110847Z 36016G22KT 05/01 A30 RMK A01 T00530007  RH  072%=      5-min Rain = 0
KPD1 110848Z 36016G23KT 05/01 A30 RMK A01 T00520006  RH  072%=      5-min Rain = 0
KPD1 110849Z 36013KT 05/01 A3001 RMK A01 T00530007  RH  072%=      5-min Rain = 0
KPD1 110850Z 35013KT 05/01 A3001 RMK A01 T00530007  RH  072%=      5-min Rain = 0
KPD1 110851Z 35013G20KT 05/01 A3001 RMK A01 T00530007  RH  072%=      5-min Rain = 0
KPD1 110852Z 00014G19KT 05/01 A3001 RMK A01 T00530008  RH  072%=      5-min Rain = 0
KPD1 110853Z 36014G19KT 05/01 A3001 RMK A01 T00530008  RH  073%=      5-min Rain = 0
KPD1 110854Z 35016G23KT 05/01 A3002 RMK A01 T00530008  RH  072%=      5-min Rain = 0
KPD1 110855Z 36015G20KT 05/01 A3001 RMK A01 T00540008  RH  073%=      5-min Rain = 0
KPD1 110856Z 01014KT 05/01 A3002 RMK A01 T00540008  RH  073%=      5-min Rain = 0
KPD1 110857Z 35014KT 05/01 A3002 RMK A01 T00540008  RH  073%=      5-min Rain = 0
KPD1 110858Z 36017KT 05/01 A3002 RMK A01 T00530008  RH  073%=      5-min Rain = 0
KPD1 110859Z 00012G20KT 05/01 A3002 RMK A01 T00540008  RH  073%=      5-min Rain = 0
KPD1 110900Z 00012KT 05/01 A3002 RMK A01 T00540009  RH  073%=      5-min Rain = 0
KPD1 110901Z 35012G17KT 05/01 A3002 RMK A01 T00530008  RH  073%=      5-min Rain = 0
KPD1 110902Z 36014G19KT 05/01 A3002 RMK A01 T00530008  RH  073%=      5-min Rain = 0
KPD1 110903Z 36014KT 05/01 A3002 RMK A01 T00530008  RH  073%=      5-min Rain = 0
KPD1 110904Z 35017G22KT 05/01 A3002 RMK A01 T00530009  RH  073%=      5-min Rain = 0
KPD1 110905Z 00019KT 05/01 A3002 RMK A01 T00540009  RH  073%=      5-min Rain = 0
KPD1 110906Z 35018G25KT 05/01 A3002 RMK A01 T00540009  RH  073%=      5-min Rain = 0
KPD1 110907Z 36019G28KT 05/01 A3002 RMK A01 T00540009  RH  073%=      5-min Rain = 0
KPD1 110908Z 35021KT 05/01 A3002 RMK A01 T00540009  RH  073%=      5-min Rain = 0
KPD1 110909Z 00020G26KT 05/01 A3002 RMK A01 T00540010  RH  073%=      5-min Rain = 0
KPD1 110910Z 01018G24KT 05/01 A3002 RMK A01 T00540010  RH  073%=      5-min Rain = 0
KPD1 110911Z 00016KT 05/01 A3003 RMK A01 T00530009  RH  073%=      5-min Rain = 0
KPD1 110912Z 00013G19KT 05/01 A3003 RMK A01 T00540010  RH  073%=      5-min Rain = 0
KPD1 110913Z 35014G22KT 05/01 A3003 RMK A01 T00530009  RH  073%=      5-min Rain = 0
KPD1 110914Z 36019G24KT 05/01 A3003 RMK A01 T00540010  RH  073%=      5-min Rain = 0
KPD1 110915Z 01018G26KT 05/01 A3003 RMK A01 T00540010  RH  074%=      5-min Rain = 0
KPD1 110916Z 01021G26KT 05/01 A3003 RMK A01 T00530010  RH  074%=      5-min Rain = 0
KPD1 110917Z 36015G21KT 05/01 A3003 RMK A01 T00540010  RH  074%=      5-min Rain = 0
KPD1 110918Z 36022KT 05/01 A3003 RMK A01 T00530010  RH  074%=      5-min Rain = 0
KPD1 110919Z 35016KT 05/01 A3003 RMK A01 T00540010  RH  073%=      5-min Rain = 0
KPD1 110920Z 35018G23KT 05/01 A3003 RMK A01 T00530010  RH  073%=      5-min Rain = 0
KPD1 110921Z 35015G20KT 05/01 A3003 RMK A01 T00530010  RH  073%=      5-min Rain = 0
KPD1 110922Z 35016G21KT 05/01 A3003 RMK A01 T00530010  RH  073%=      5-min Rain = 0
KPD1 110923Z 00017G22KT 05/01 A3003 RMK A01 T00530010  RH  073%=      5-min Rain = 0
KPD1 110924Z 00017KT 05/01 A3003 RMK A01 T00530010  RH  073%=      5-min Rain = 0
KPD1 110925Z 00016KT 05/01 A3003 RMK A01 T00540010  RH  073%=      5-min Rain = 0
KPD1 110926Z 36018G24KT 05/01 A3003 RMK A01 T00530009  RH  073%=      5-min Rain = 0
KPD1 110927Z 35020G26KT 05/01 A3003 RMK A01 T00530008  RH  073%=      5-min Rain = 0
KPD1 110928Z 01022G30KT 05/01 A3004 RMK A01 T00520008  RH  073%=      5-min Rain = 0
KPD1 110929Z 00020G26KT 05/01 A3004 RMK A01 T00510007  RH  073%=      5-min Rain = 0
KPD1 110930Z 35020G28KT 05/01 A3004 RMK A01 T00500006  RH  073%=      5-min Rain = 0
KPD1 110931Z 36025G33KT 05/01 A3004 RMK A01 T00490006  RH  073%=      5-min Rain = 0
KPD1 110932Z 36023G28KT 05/01 A3004 RMK A01 T00490005  RH  073%=      5-min Rain = 0
KPD1 110933Z 01026G32KT 05/00 A3004 RMK A01 T00480004  RH  073%=      5-min Rain = 0
KPD1 110934Z 01020G27KT 05/00 A3004 RMK A01 T00480004  RH  074%=      5-min Rain = 0
KPD1 110935Z 00022G29KT 05/01 A3004 RMK A01 T00470005  RH  074%=      5-min Rain = 0
KPD1 110936Z 36019G24KT 05/01 A3004 RMK A01 T00470005  RH  074%=      5-min Rain = 0
KPD1 110937Z 00025G34KT 05/01 A3005 RMK A01 T00470005  RH  074%=      5-min Rain = 0
KPD1 110938Z 36025G33KT 05/00 A3005 RMK A01 T00460003  RH  074%=      5-min Rain = 0
KPD1 110939Z 36023G35KT 05/00 A3005 RMK A01 T00450001  RH  073%=      5-min Rain = 0
KPD1 110940Z 36019G27KT 04/00 A3005 RMK A01 T00440001  RH  074%=      5-min Rain = 0
KPD1 110941Z 00023G35KT 04/00 A3005 RMK A01 T00430001  RH  074%=      5-min Rain = 0
KPD1 110942Z 36026G32KT 04/00 A3005 RMK A01 T00420001  RH  074%=      5-min Rain = 0
KPD1 110943Z 01026KT 04/00 A3005 RMK A01 T00410001  RH  075%=      5-min Rain = 0
KPD1 110944Z 00025G31KT 04/00 A3005 RMK A01 T00410001  RH  075%=      5-min Rain = 0
KPD1 110945Z 00019G26KT 04/00 A3005 RMK A01 T00410001  RH  075%=      5-min Rain = 0
KPD1 110946Z 00018G26KT 04/00 A3006 RMK A01 T00410001  RH  075%=      5-min Rain = 0
KPD1 110947Z 35013G23KT 04/00 A3006 RMK A01 T00410001  RH  075%=      5-min Rain = 0
KPD1 110948Z 35019KT 04/00 A3006 RMK A01 T00410001  RH  075%=      5-min Rain = 0
KPD1 110949Z 35022KT 04/M00 A3006 RMK A01 T00401001  RH  075%=      5-min Rain = 0
KPD1 110950Z 36026G31KT 04/M00 A3006 RMK A01 T00381002  RH  075%=      5-min Rain = 0
KPD1 110951Z 36019G27KT 04/M00 A3006 RMK A01 T00371003  RH  075%=      5-min Rain = 0
KPD1 110952Z 36017G25KT 04/M00 A3007 RMK A01 T00371003  RH  075%=      5-min Rain = 0
KPD1 110953Z 00021KT 04/M00 A3007 RMK A01 T00361003  RH  076%=      5-min Rain = 0
KPD1 110954Z 35014G21KT 04/M00 A3007 RMK A01 T00351004  RH  076%=      5-min Rain = 0
KPD1 110955Z 35021G29KT 04/M00 A3007 RMK A01 T00351004  RH  076%=      5-min Rain = 0
KPD1 110956Z 35021G28KT 03/M01 A3007 RMK A01 T00331006  RH  075%=      5-min Rain = 0
KPD1 110957Z 35018G29KT 03/M01 A3007 RMK A01 T00321007  RH  076%=      5-min Rain = 0
KPD1 110958Z 35021KT 03/M01 A3007 RMK A01 T00311007  RH  076%=      5-min Rain = 0
KPD1 110959Z 35018G26KT 03/M01 A3008 RMK A01 T00311007  RH  076%=      5-min Rain = 0
KPD1 111000Z 35021G30KT 03/M01 A3008 RMK A01 T00301007  RH  076%=      5-min Rain = 0
KPD1 111001Z 35021G26KT 03/M01 A3008 RMK A01 T00301008  RH  076%=      5-min Rain = 0
KPD1 111002Z 35017G23KT 03/M01 A3008 RMK A01 T00291009  RH  077%=      5-min Rain = 0
KPD1 111003Z 35020G25KT 03/M01 A3008 RMK A01 T00281008  RH  077%=      5-min Rain = 0
KPD1 111004Z 35018G26KT 03/M01 A3008 RMK A01 T00281008  RH  077%=      5-min Rain = 0
KPD1 111005Z 36024G32KT 03/M01 A3008 RMK A01 T00271008  RH  077%=      5-min Rain = 0
KPD1 111006Z 35024KT 03/M01 A3008 RMK A01 T00271009  RH  078%=      5-min Rain = 0
KPD1 111007Z 00022G33KT 03/M01 A3008 RMK A01 T00261009  RH  078%=      5-min Rain = 0
KPD1 111008Z 01025G31KT 03/M01 A3009 RMK A01 T00251009  RH  078%=      5-min Rain = 0
KPD1 111009Z 01029G34KT 02/M01 A3009 RMK A01 T00241009  RH  078%=      5-min Rain = 0
KPD1 111010Z 36026G32KT 02/M01 A3009 RMK A01 T00241009  RH  079%=      5-min Rain = 0
KPD1 111011Z 36024G29KT 02/M01 A3009 RMK A01 T00231009  RH  079%=      5-min Rain = 0
KPD1 111012Z 35023G32KT 02/M01 A3009 RMK A01 T00231008  RH  080%=      5-min Rain = 0
KPD1 111013Z 00025G34KT 02/M01 A3009 RMK A01 T00231008  RH  080%=      5-min Rain = 0
KPD1 111014Z 36022G32KT 02/M01 A3009 RMK A01 T00221009  RH  080%=      5-min Rain = 0
KPD1 111015Z 00022G32KT 02/M01 A3009 RMK A01 T00221009  RH  080%=      5-min Rain = 0
KPD1 111016Z 36020G28KT 02/M01 A3009 RMK A01 T00221008  RH  080%=      5-min Rain = 0
KPD1 111017Z 36019G25KT 02/M01 A3009 RMK A01 T00221008  RH  081%=      5-min Rain = 0
KPD1 111018Z 35023G33KT 02/M01 A301 RMK A01 T00211009  RH  080%=      5-min Rain = 0
KPD1 111019Z 35025G31KT 02/M01 A301 RMK A01 T00211009  RH  080%=      5-min Rain = 0
KPD1 111020Z 35023G29KT 02/M01 A301 RMK A01 T00201011  RH  080%=      5-min Rain = 0
KPD1 111021Z 36021G27KT 02/M01 A301 RMK A01 T00191010  RH  081%=      5-min Rain = 0
KPD1 111022Z 35021G31KT 02/M01 A301 RMK A01 T00191010  RH  081%=      5-min Rain = 0
KPD1 111023Z 36026G31KT 02/M01 A301 RMK A01 T00181011  RH  081%=      5-min Rain = 0
KPD1 111024Z 35026G33KT 02/M01 A301 RMK A01 T00171012  RH  081%=      5-min Rain = 0
KPD1 111025Z 35023G28KT 02/M01 A301 RMK A01 T00171012  RH  081%=      5-min Rain = 0
KPD1 111026Z 35025G35KT 02/M01 A301 RMK A01 T00161013  RH  081%=      5-min Rain = 0
KPD1 111027Z 35026G36KT 01/M02 A3011 RMK A01 T00141015  RH  081%=      5-min Rain = 0
KPD1 111028Z 35027G35KT 01/M02 A3011 RMK A01 T00131016  RH  081%=      5-min Rain = 0
KPD1 111029Z 36020G26KT 01/M02 A3011 RMK A01 T00121017  RH  081%=      5-min Rain = 0
KPD1 111030Z 35022G31KT 01/M02 A3011 RMK A01 T00121017  RH  081%=      5-min Rain = 0
KPD1 111031Z 00022G32KT 01/M02 A3011 RMK A01 T00111018  RH  081%=      5-min Rain = 0
KPD1 111032Z 00020G26KT 01/M02 A3011 RMK A01 T00091018  RH  082%=      5-min Rain = 0
KPD1 111033Z 36023G30KT 01/M02 A3011 RMK A01 T00091018  RH  082%=      5-min Rain = 0
KPD1 111034Z 35024G33KT 01/M02 A3012 RMK A01 T00091017  RH  083%=      5-min Rain = 0
KPD1 111035Z 36020G29KT 01/M02 A3012 RMK A01 T00081018  RH  083%=      5-min Rain = 0
KPD1 111036Z 35026G36KT 01/M02 A3012 RMK A01 T00071018  RH  083%=      5-min Rain = 0
KPD1 111037Z 36028G37KT 01/M02 A3013 RMK A01 T00061020  RH  083%=      5-min Rain = 0
KPD1 111038Z 35025G35KT 01/M02 A3013 RMK A01 T00051021  RH  083%=      5-min Rain = 0
KPD1 111039Z 00022G32KT 00/M02 A3013 RMK A01 T00041023  RH  083%=      5-min Rain = 0
KPD1 111040Z 36025G30KT 00/M02 A3013 RMK A01 T00031023  RH  083%=      5-min Rain = 0
KPD1 111041Z 35026G32KT 00/M02 A3014 RMK A01 T00031023  RH  083%=      5-min Rain = 0
KPD1 111042Z 35024G29KT 00/M02 A3013 RMK A01 T00021024  RH  083%=      5-min Rain = 0
KPD1 111043Z 35028G38KT 00/M03 A3014 RMK A01 T00011025  RH  083%=      5-min Rain = 0
KPD1 111044Z 36029G37KT 00/03 A3014 RMK A01 T00000-26  RH  083%=      5-min Rain = 0
KPD1 111045Z 36024G31KT 00/03 A3014 RMK A01 T00-00-27  RH  082%=      5-min Rain = 0
KPD1 111046Z 35026G34KT M00/M03 A3014 RMK A01 T10011027  RH  083%=      5-min Rain = 0
KPD1 111047Z 35028G33KT M00/M03 A3014 RMK A01 T10011027  RH  083%=      5-min Rain = 0
KPD1 111048Z 36026G35KT M00/M03 A3014 RMK A01 T10021027  RH  083%=      5-min Rain = 0
KPD1 111049Z 35025G37KT M00/M03 A3014 RMK A01 T10021027  RH  083%=      5-min Rain = 0
KPD1 111050Z 35026G33KT M00/M03 A3014 RMK A01 T10031028  RH  083%=      5-min Rain = 0
KPD1 111051Z 36027G35KT M00/M03 A3014 RMK A01 T10041028  RH  084%=      5-min Rain = 0
KPD1 111052Z 36028G35KT M00/M03 A3014 RMK A01 T10041029  RH  084%=      5-min Rain = 0
KPD1 111053Z 36025G32KT M01/M03 A3015 RMK A01 T10051028  RH  084%=      5-min Rain = 0
KPD1 111054Z 36023G32KT M01/M03 A3015 RMK A01 T10051029  RH  084%=      5-min Rain = 0
KPD1 111055Z 35024G29KT M01/M03 A3015 RMK A01 T10061028  RH  085%=      5-min Rain = 0
KPD1 111056Z 35023G29KT M01/M03 A3015 RMK A01 T10061028  RH  085%=      5-min Rain = 0
KPD1 111057Z 35021KT M01/M03 A3015 RMK A01 T10061028  RH  085%=      5-min Rain = 0
KPD1 111058Z 00019G24KT M01/M03 A3015 RMK A01 T10071029  RH  085%=      5-min Rain = 0
KPD1 111059Z 36024G36KT M01/M03 A3015 RMK A01 T10071029  RH  085%=      5-min Rain = 0
KPD1 111100Z 35032G38KT M01/M03 A3015 RMK A01 T10081030  RH  085%=      5-min Rain = 0
KPD1 111101Z 36027G37KT M01/M03 A3015 RMK A01 T10091031  RH  085%=      5-min Rain = 0
KPD1 111102Z 35021G28KT M01/M03 A3015 RMK A01 T10091031  RH  085%=      5-min Rain = 0
KPD1 111103Z 35029G40KT M01/M03 A3015 RMK A01 T10101032  RH  085%=      5-min Rain = 0
KPD1 111104Z 35028G38KT M01/M03 A3015 RMK A01 T10101032  RH  085%=      5-min Rain = 0
KPD1 111105Z 35026G33KT M01/M03 A3015 RMK A01 T10101032  RH  085%=      5-min Rain = 0
KPD1 111106Z 35028G36KT M01/M03 A3015 RMK A01 T10101032  RH  085%=      5-min Rain = 0
KPD1 111107Z 35024G31KT M01/M03 A3016 RMK A01 T10111032  RH  085%=      5-min Rain = 0
KPD1 111108Z 00025G33KT M01/M03 A3016 RMK A01 T10111032  RH  086%=      5-min Rain = 0
KPD1 111109Z 00027G35KT M01/M03 A3016 RMK A01 T10111032  RH  086%=      5-min Rain = 0
KPD1 111110Z 00025G33KT M01/M03 A3016 RMK A01 T10121032  RH  086%=      5-min Rain = 0
KPD1 111111Z 35023G35KT M01/M03 A3016 RMK A01 T10121031  RH  087%=      5-min Rain = 0
KPD1 111112Z 00023G30KT M01/M03 A3016 RMK A01 T10121030  RH  087%=      5-min Rain = 0
KPD1 111113Z 35021G27KT M01/M03 A3016 RMK A01 T10121031  RH  087%=      5-min Rain = 0
KPD1 111114Z 35025G32KT M01/M03 A3016 RMK A01 T10121030  RH  087%=      5-min Rain = 0
KPD1 111115Z 00026G34KT M01/M03 A3016 RMK A01 T10121030  RH  088%=      5-min Rain = 0
KPD1 111116Z 35023G30KT M01/M03 A3016 RMK A01 T10131031  RH  087%=      5-min Rain = 0
KPD1 111117Z 36022G32KT M01/M03 A3016 RMK A01 T10131031  RH  087%=      5-min Rain = 0
KPD1 111118Z 36026G35KT M01/M03 A3016 RMK A01 T10131031  RH  087%=      5-min Rain = 0
KPD1 111119Z 36022G30KT M01/M03 A3017 RMK A01 T10131032  RH  087%=      5-min Rain = 0
KPD1 111120Z 36024G33KT M01/M03 A3017 RMK A01 T10131032  RH  087%=      5-min Rain = 0
KPD1 111121Z 35028G33KT M01/M03 A3017 RMK A01 T10131032  RH  087%=      5-min Rain = 0
KPD1 111122Z 36022KT M01/M03 A3017 RMK A01 T10141033  RH  087%=      5-min Rain = 0
KPD1 111123Z 35022G28KT M01/M03 A3017 RMK A01 T10141033  RH  087%=      5-min Rain = 0
KPD1 111124Z 35023G32KT M01/M03 A3017 RMK A01 T10141033  RH  087%=      5-min Rain = 0
KPD1 111125Z 35024G31KT M01/M03 A3017 RMK A01 T10141033  RH  087%=      5-min Rain = 0
KPD1 111126Z 36022KT M01/M03 A3017 RMK A01 T10141033  RH  087%=      5-min Rain = 0
KPD1 111127Z 35025G32KT M01/M03 A3018 RMK A01 T10141032  RH  088%=      5-min Rain = 0
KPD1 111128Z 35020G31KT M01/M03 A3018 RMK A01 T10141032  RH  088%=      5-min Rain = 0
KPD1 111129Z 36022G30KT M01/M03 A3018 RMK A01 T10141032  RH  088%=      5-min Rain = 0
KPD1 111130Z 35023G29KT M01/M03 A3018 RMK A01 T10141032  RH  088%=      5-min Rain = 0
KPD1 111131Z 35024G32KT M01/M03 A3018 RMK A01 T10141032  RH  088%=      5-min Rain = 0
KPD1 111132Z 36018KT M02/M03 A3017 RMK A01 T10151032  RH  088%=      5-min Rain = 0
KPD1 111133Z 00024G32KT M02/M03 A3018 RMK A01 T10151032  RH  088%=      5-min Rain = 0
KPD1 111134Z 36021G33KT M02/M03 A3018 RMK A01 T10151033  RH  088%=      5-min Rain = 0
KPD1 111135Z 36024G30KT M02/M03 A3018 RMK A01 T10151034  RH  088%=      5-min Rain = 0
KPD1 111136Z 36021G32KT M02/M03 A3018 RMK A01 T10161034  RH  087%=      5-min Rain = 0
KPD1 111137Z 35023G30KT M02/M03 A3018 RMK A01 T10151034  RH  087%=      5-min Rain = 0
KPD1 111138Z 36023G32KT M02/M03 A3018 RMK A01 T10161034  RH  087%=      5-min Rain = 0
KPD1 111139Z 35024G31KT M02/M03 A3018 RMK A01 T10161034  RH  087%=      5-min Rain = 0
KPD1 111140Z 00020G27KT M02/M04 A3018 RMK A01 T10161035  RH  087%=      5-min Rain = 0
KPD1 111141Z 36024G34KT M02/M04 A3018 RMK A01 T10161035  RH  087%=      5-min Rain = 0
KPD1 111142Z 00021G27KT M02/M04 A3018 RMK A01 T10161036  RH  087%=      5-min Rain = 0
KPD1 111143Z 36018G25KT M02/M04 A3018 RMK A01 T10171036  RH  086%=      5-min Rain = 0
KPD1 111144Z 36022KT M02/M04 A3018 RMK A01 T10171036  RH  086%=      5-min Rain = 0
KPD1 111145Z 36020G30KT M02/M04 A3018 RMK A01 T10161036  RH  087%=      5-min Rain = 0
KPD1 111146Z 35021G30KT M02/M04 A3018 RMK A01 T10161036  RH  087%=      5-min Rain = 0
KPD1 111147Z 35020G28KT M02/M04 A3018 RMK A01 T10161036  RH  086%=      5-min Rain = 0
KPD1 111148Z 35024G31KT M02/M04 A3018 RMK A01 T10161036  RH  086%=      5-min Rain = 0
KPD1 111149Z 36024G31KT M02/M04 A3018 RMK A01 T10171037  RH  086%=      5-min Rain = 0
KPD1 111150Z 35022G29KT M02/M04 A3018 RMK A01 T10171037  RH  086%=      5-min Rain = 0
KPD1 111151Z 35017G25KT M02/M04 A3018 RMK A01 T10171037  RH  086%=      5-min Rain = 0
KPD1 111152Z 35022G27KT M02/M04 A3019 RMK A01 T10171037  RH  086%=      5-min Rain = 0
KPD1 111153Z 35021G30KT M02/M04 A3019 RMK A01 T10171037  RH  086%=      5-min Rain = 0
KPD1 111154Z 00023KT M02/M04 A3019 RMK A01 T10171037  RH  086%=      5-min Rain = 0
KPD1 111155Z 00023G31KT M02/M04 A3019 RMK A01 T10171037  RH  086%=      5-min Rain = 0
KPD1 111156Z 36024G29KT M02/M04 A3019 RMK A01 T10171037  RH  086%=      5-min Rain = 0
KPD1 111157Z 00021G26KT M02/M04 A302 RMK A01 T10171037  RH  086%=      5-min Rain = 0
KPD1 111158Z 35019G24KT M02/M04 A302 RMK A01 T10171037  RH  086%=      5-min Rain = 0
KPD1 111159Z 35020G29KT M02/M04 A302 RMK A01 T10171037  RH  087%=      5-min Rain = 0
KPD1 111200Z 35024G33KT M02/M04 A302 RMK A01 T10171036  RH  087%=      5-min Rain = 0
KPD1 111201Z 36021G29KT M02/M04 A302 RMK A01 T10171037  RH  087%=      5-min Rain = 0
KPD1 111202Z 36019G25KT M02/M04 A302 RMK A01 T10171037  RH  087%=      5-min Rain = 0
KPD1 111203Z 00020G27KT M02/M04 A302 RMK A01 T10171036  RH  087%=      5-min Rain = 0
KPD1 111204Z 00021G27KT M02/M04 A302 RMK A01 T10171037  RH  087%=      5-min Rain = 0
KPD1 111205Z 36016G21KT M02/M04 A302 RMK A01 T10181037  RH  087%=      5-min Rain = 0
KPD1 111206Z 35019G26KT M02/M04 A302 RMK A01 T10181037  RH  087%=      5-min Rain = 0
KPD1 111207Z 35020G28KT M02/M04 A302 RMK A01 T10181037  RH  087%=      5-min Rain = 0
KPD1 111208Z 35023G32KT M02/M04 A302 RMK A01 T10181037  RH  087%=      5-min Rain = 0
KPD1 111209Z 35022G31KT M02/M04 A3021 RMK A01 T10181037  RH  086%=      5-min Rain = 0
KPD1 111210Z 35023KT M02/M04 A3021 RMK A01 T10181038  RH  086%=      5-min Rain = 0
KPD1 111211Z 36022G31KT M02/M04 A3021 RMK A01 T10181037  RH  086%=      5-min Rain = 0
KPD1 111212Z 35022KT M02/M04 A3021 RMK A01 T10181037  RH  086%=      5-min Rain = 0
KPD1 111213Z 35021G26KT M02/M04 A3022 RMK A01 T10181037  RH  087%=      5-min Rain = 0
KPD1 111214Z 35022KT M02/M04 A3022 RMK A01 T10181038  RH  087%=      5-min Rain = 0
KPD1 111215Z 36018G23KT M02/M04 A3022 RMK A01 T10181037  RH  087%=      5-min Rain = 0
KPD1 111216Z 36017G23KT M02/M04 A3022 RMK A01 T10181037  RH  087%=      5-min Rain = 0
KPD1 111217Z 35016G22KT M02/M04 A3022 RMK A01 T10191037  RH  087%=      5-min Rain = 0
KPD1 111218Z 00016G21KT M02/M04 A3022 RMK A01 T10191037  RH  087%=      5-min Rain = 0
KPD1 111219Z 36019G25KT M02/M04 A3022 RMK A01 T10191037  RH  087%=      5-min Rain = 0
KPD1 111220Z 35022G27KT M02/M04 A3022 RMK A01 T10191037  RH  088%=      5-min Rain = 0
KPD1 111221Z 00024KT M02/M04 A3022 RMK A01 T10191037  RH  088%=      5-min Rain = 0
KPD1 111222Z 35020G26KT M02/M04 A3023 RMK A01 T10191037  RH  088%=      5-min Rain = 0
KPD1 111223Z 36025G30KT M02/M04 A3022 RMK A01 T10191037  RH  088%=      5-min Rain = 0
KPD1 111224Z 01021G27KT M02/M04 A3023 RMK A01 T10201038  RH  088%=      5-min Rain = 0
KPD1 111225Z 01017G22KT M02/M04 A3023 RMK A01 T10201038  RH  088%=      5-min Rain = 0
KPD1 111226Z 35016G22KT M02/M04 A3023 RMK A01 T10201037  RH  088%=      5-min Rain = 0
KPD1 111227Z 35020G27KT M02/M04 A3023 RMK A01 T10191037  RH  088%=      5-min Rain = 0
KPD1 111228Z 35019G25KT M02/M04 A3023 RMK A01 T10201038  RH  088%=      5-min Rain = 0
KPD1 111229Z 35023KT M02/M04 A3023 RMK A01 T10201038  RH  087%=      5-min Rain = 0
KPD1 111230Z 35022G29KT M02/M04 A3023 RMK A01 T10211039  RH  087%=      5-min Rain = 0
KPD1 111231Z 35025G34KT M02/M04 A3023 RMK A01 T10211040  RH  087%=      5-min Rain = 0
KPD1 111232Z 35027G32KT M02/M04 A3023 RMK A01 T10221040  RH  087%=      5-min Rain = 0
KPD1 111233Z 35025G30KT M02/M04 A3023 RMK A01 T10221041  RH  087%=      5-min Rain = 0
KPD1 111234Z 00022G29KT M02/M04 A3023 RMK A01 T10221041  RH  087%=      5-min Rain = 0
KPD1 111235Z 35021G28KT M02/M04 A3024 RMK A01 T10221041  RH  087%=      5-min Rain = 0
KPD1 111236Z 35022G28KT M02/M04 A3024 RMK A01 T10231042  RH  087%=      5-min Rain = 0
KPD1 111237Z 35022G31KT M02/M04 A3024 RMK A01 T10231043  RH  087%=      5-min Rain = 0
KPD1 111238Z 36020G27KT M02/M04 A3024 RMK A01 T10231043  RH  087%=      5-min Rain = 0
KPD1 111239Z 00022G28KT M02/M04 A3025 RMK A01 T10241044  RH  087%=      5-min Rain = 0
KPD1 111240Z 36021G27KT M03/M04 A3025 RMK A01 T10251044  RH  086%=      5-min Rain = 0
KPD1 111241Z 00021G26KT M03/M05 A3025 RMK A01 T10251045  RH  086%=      5-min Rain = 0
KPD1 111242Z 00018G26KT M03/M05 A3025 RMK A01 T10251045  RH  086%=      5-min Rain = 0
KPD1 111243Z 35020G26KT M03/M04 A3025 RMK A01 T10251044  RH  087%=      5-min Rain = 0
KPD1 111244Z 35022G29KT M03/M04 A3025 RMK A01 T10251044  RH  087%=      5-min Rain = 0
KPD1 111245Z 35022G30KT M03/M04 A3025 RMK A01 T10251044  RH  087%=      5-min Rain = 0
KPD1 111246Z 36026G35KT M03/M05 A3025 RMK A01 T10261045  RH  087%=      5-min Rain = 0
KPD1 111247Z 36023G29KT M03/M05 A3025 RMK A01 T10271045  RH  087%=      5-min Rain = 0
KPD1 111248Z 35022G28KT M03/M05 A3025 RMK A01 T10271046  RH  087%=      5-min Rain = 0
KPD1 111249Z 00024G31KT M03/M05 A3025 RMK A01 T10281046  RH  087%=      5-min Rain = 0
KPD1 111250Z 36025KT M03/M05 A3025 RMK A01 T10291048  RH  087%=      5-min Rain = 0
KPD1 111251Z 35024G29KT M03/M05 A3025 RMK A01 T10291049  RH  086%=      5-min Rain = 0
KPD1 111252Z 35029G34KT M03/M05 A3025 RMK A01 T10301050  RH  086%=      5-min Rain = 0
KPD1 111253Z 35026G31KT M03/M05 A3025 RMK A01 T10301051  RH  086%=      5-min Rain = 0
KPD1 111254Z 35025G31KT M03/M05 A3026 RMK A01 T10311052  RH  085%=      5-min Rain = 0
KPD1 111255Z 35025G31KT M03/M05 A3026 RMK A01 T10321053  RH  085%=      5-min Rain = 0
KPD1 111256Z 35022G30KT M03/M05 A3026 RMK A01 T10331054  RH  085%=      5-min Rain = 0
KPD1 111257Z 35022KT M03/M05 A3026 RMK A01 T10331054  RH  085%=      5-min Rain = 0
KPD1 111258Z 36023G32KT M03/M05 A3026 RMK A01 T10331054  RH  085%=      5-min Rain = 0
KPD1 111259Z 36023G30KT M03/M06 A3026 RMK A01 T10331055  RH  085%=      5-min Rain = 0
KPD1 111300Z 36021G29KT M03/M06 A3026 RMK A01 T10331055  RH  085%=      5-min Rain = 0
KPD1 111301Z 35023G33KT M03/M05 A3026 RMK A01 T10331054  RH  085%=      5-min Rain = 0
KPD1 111302Z 00028G35KT M03/M06 A3026 RMK A01 T10331055  RH  085%=      5-min Rain = 0
KPD1 111303Z 35025G30KT M03/M06 A3026 RMK A01 T10341056  RH  084%=      5-min Rain = 0
KPD1 111304Z 00027G34KT M03/M06 A3026 RMK A01 T10341057  RH  084%=      5-min Rain = 0
KPD1 111305Z 35026G31KT M03/M06 A3026 RMK A01 T10341059  RH  083%=      5-min Rain = 0
KPD1 111306Z 35026KT M04/M06 A3026 RMK A01 T10351059  RH  083%=      5-min Rain = 0
KPD1 111307Z 35020G25KT M04/M06 A3026 RMK A01 T10351059  RH  083%=      5-min Rain = 0
KPD1 111308Z 00025G34KT M04/M06 A3027 RMK A01 T10351059  RH  083%=      5-min Rain = 0
KPD1 111309Z 00022G31KT M04/M06 A3027 RMK A01 T10351059  RH  083%=      5-min Rain = 0
KPD1 111310Z 00020G26KT M04/M06 A3027 RMK A01 T10351060  RH  083%=      5-min Rain = 0
KPD1 111311Z 36027G34KT M04/M06 A3027 RMK A01 T10351060  RH  083%=      5-min Rain = 0
KPD1 111312Z 36021G30KT M04/M06 A3027 RMK A01 T10361060  RH  083%=      5-min Rain = 0
KPD1 111313Z 36025G34KT M04/M06 A3027 RMK A01 T10361060  RH  084%=      5-min Rain = 0
KPD1 111314Z 00027KT M04/M06 A3027 RMK A01 T10361060  RH  084%=      5-min Rain = 0
KPD1 111315Z 36020G25KT M04/M06 A3027 RMK A01 T10361059  RH  084%=      5-min Rain = 0
KPD1 111316Z 01022G28KT M04/M06 A3027 RMK A01 T10361059  RH  084%=      5-min Rain = 0
KPD1 111317Z 00019KT M04/M06 A3028 RMK A01 T10371059  RH  084%=      5-min Rain = 0
KPD1 111318Z 00019G25KT M04/M06 A3028 RMK A01 T10371059  RH  085%=      5-min Rain = 0
KPD1 111319Z 01025G31KT M04/M06 A3028 RMK A01 T10371059  RH  085%=      5-min Rain = 0
KPD1 111320Z 01022G30KT M04/M06 A3028 RMK A01 T10371059  RH  085%=      5-min Rain = 0
KPD1 111321Z 01023G30KT M04/M06 A3028 RMK A01 T10371059  RH  085%=      5-min Rain = 0
KPD1 111322Z 01024G31KT M04/M06 A3028 RMK A01 T10371059  RH  085%=      5-min Rain = 0
KPD1 111323Z 00023G30KT M04/M06 A3028 RMK A01 T10371059  RH  085%=      5-min Rain = 0
KPD1 111324Z 00023G30KT M04/M06 A3028 RMK A01 T10371059  RH  085%=      5-min Rain = 0
KPD1 111325Z 01022G34KT M04/M06 A3028 RMK A01 T10371059  RH  085%=      5-min Rain = 0
KPD1 111326Z 36024G32KT M04/M06 A3028 RMK A01 T10371059  RH  085%=      5-min Rain = 0
KPD1 111327Z 36023G29KT M04/M06 A3028 RMK A01 T10381059  RH  085%=      5-min Rain = 0
KPD1 111328Z 00025G31KT M04/M06 A3028 RMK A01 T10371059  RH  085%=      5-min Rain = 0
KPD1 111329Z 00024G34KT M04/M06 A3029 RMK A01 T10371059  RH  085%=      5-min Rain = 0
KPD1 111330Z 01024G31KT M04/M06 A3029 RMK A01 T10381059  RH  085%=      5-min Rain = 0
KPD1 111331Z 36021G29KT M04/M06 A3029 RMK A01 T10371059  RH  085%=      5-min Rain = 0
KPD1 111332Z 00020G30KT M04/M06 A3029 RMK A01 T10381059  RH  085%=      5-min Rain = 0
KPD1 111333Z 36027KT M04/M06 A3029 RMK A01 T10381059  RH  085%=      5-min Rain = 0
KPD1 111334Z 00022G28KT M04/M06 A3029 RMK A01 T10371060  RH  085%=      5-min Rain = 0
KPD1 111335Z 00022G28KT M04/M06 A303 RMK A01 T10371060  RH  084%=      5-min Rain = 0
KPD1 111336Z 00022G30KT M04/M06 A303 RMK A01 T10371059  RH  084%=      5-min Rain = 0
KPD1 111337Z 01021G28KT M04/M06 A303 RMK A01 T10381060  RH  084%=      5-min Rain = 0
KPD1 111338Z 35021KT M04/M06 A303 RMK A01 T10371060  RH  084%=      5-min Rain = 0
KPD1 111339Z 00019KT M04/M06 A303 RMK A01 T10381060  RH  085%=      5-min Rain = 0
KPD1 111340Z 35018G23KT M04/M06 A303 RMK A01 T10381059  RH  085%=      5-min Rain = 0
KPD1 111341Z 35022G27KT M04/M06 A303 RMK A01 T10371059  RH  085%=      5-min Rain = 0
KPD1 111342Z 35026G33KT M04/M06 A303 RMK A01 T10381059  RH  085%=      5-min Rain = 0
KPD1 111343Z 35025G32KT M04/M06 A303 RMK A01 T10381060  RH  085%=      5-min Rain = 0
KPD1 111344Z 35028G36KT M04/M06 A303 RMK A01 T10381062  RH  084%=      5-min Rain = 0
KPD1 111345Z 35028G34KT M04/M06 A303 RMK A01 T10391063  RH  084%=      5-min Rain = 0
KPD1 111346Z 35023G32KT M04/M06 A303 RMK A01 T10401064  RH  083%=      5-min Rain = 0
KPD1 111347Z 35023G33KT M04/M07 A303 RMK A01 T10411065  RH  083%=      5-min Rain = 0
KPD1 111348Z 36021G31KT M04/M07 A303 RMK A01 T10411065  RH  084%=      5-min Rain = 0
KPD1 111349Z 35021KT M04/M07 A303 RMK A01 T10411065  RH  084%=      5-min Rain = 0
KPD1 111350Z 35024G29KT M04/M06 A303 RMK A01 T10421064  RH  084%=      5-min Rain = 0
KPD1 111351Z 36027KT M04/M07 A303 RMK A01 T10421065  RH  084%=      5-min Rain = 0
KPD1 111352Z 35024G30KT M04/M07 A303 RMK A01 T10431065  RH  084%=      5-min Rain = 0
KPD1 111353Z 35022G29KT M04/M07 A303 RMK A01 T10431066  RH  084%=      5-min Rain = 0
KPD1 111354Z 36025G31KT M04/M07 A303 RMK A01 T10431066  RH  085%=      5-min Rain = 0
KPD1 111355Z 36021KT M04/M07 A3031 RMK A01 T10441066  RH  085%=      5-min Rain = 0
KPD1 111356Z 35021G31KT M04/M07 A3031 RMK A01 T10441065  RH  085%=      5-min Rain = 0
KPD1 111357Z 35027G33KT M04/M07 A303 RMK A01 T10441065  RH  085%=      5-min Rain = 0
KPD1 111358Z 36028G36KT M04/M07 A303 RMK A01 T10441065  RH  085%=      5-min Rain = 0
KPD1 111359Z 36026G37KT M05/M07 A3031 RMK A01 T10451067  RH  085%=      5-min Rain = 0
KPD1 111400Z 35026G35KT M05/M07 A3031 RMK A01 T10451067  RH  085%=      5-min Rain = 0
KPD1 111401Z 35023G34KT M05/M07 A3031 RMK A01 T10451067  RH  085%=      5-min Rain = 0
KPD1 111402Z 35025KT M05/M07 A3031 RMK A01 T10461068  RH  085%=      5-min Rain = 0
KPD1 111403Z 36024G31KT M05/M07 A3031 RMK A01 T10461069  RH  084%=      5-min Rain = 0
KPD1 111404Z 35022G29KT M05/M07 A3031 RMK A01 T10461069  RH  084%=      5-min Rain = 0
KPD1 111405Z 36025G35KT M05/M07 A3031 RMK A01 T10461070  RH  083%=      5-min Rain = 0
KPD1 111406Z 01027G35KT M05/M07 A3032 RMK A01 T10461071  RH  083%=      5-min Rain = 0
KPD1 111407Z 00023G29KT M05/M07 A3032 RMK A01 T10461071  RH  082%=      5-min Rain = 0
KPD1 111408Z 36025G30KT M05/M07 A3032 RMK A01 T10451071  RH  082%=      5-min Rain = 0
KPD1 111409Z 35019G24KT M05/M07 A3032 RMK A01 T10451071  RH  082%=      5-min Rain = 0
KPD1 111410Z 35023G32KT M05/M07 A3032 RMK A01 T10451071  RH  082%=      5-min Rain = 0
KPD1 111411Z 36022G31KT M05/M07 A3033 RMK A01 T10451071  RH  082%=      5-min Rain = 0
KPD1 111412Z 00022G30KT M05/M07 A3033 RMK A01 T10451070  RH  083%=      5-min Rain = 0
KPD1 111413Z 00022KT M05/M07 A3033 RMK A01 T10461071  RH  083%=      5-min Rain = 0
KPD1 111414Z 35022KT M05/M07 A3033 RMK A01 T10461071  RH  083%=      5-min Rain = 0
KPD1 111415Z 01024G32KT M05/M07 A3033 RMK A01 T10461070  RH  083%=      5-min Rain = 0
KPD1 111416Z 00021G28KT M05/M07 A3033 RMK A01 T10471070  RH  083%=      5-min Rain = 0
KPD1 111417Z 00018G24KT M05/M07 A3033 RMK A01 T10471070  RH  084%=      5-min Rain = 0
KPD1 111418Z 35020G27KT M05/M07 A3033 RMK A01 T10471069  RH  084%=      5-min Rain = 0
KPD1 111419Z 36027G34KT M05/M07 A3033 RMK A01 T10471069  RH  084%=      5-min Rain = 0
KPD1 111420Z 35019G24KT M05/M07 A3033 RMK A01 T10471069  RH  084%=      5-min Rain = 0
KPD1 111421Z 35024G29KT M05/M07 A3033 RMK A01 T10471069  RH  084%=      5-min Rain = 0
KPD1 111422Z 35025G31KT M05/M07 A3033 RMK A01 T10481070  RH  084%=      5-min Rain = 0
KPD1 111423Z 35021G30KT M05/M07 A3034 RMK A01 T10481071  RH  084%=      5-min Rain = 0
KPD1 111424Z 35023G31KT M05/M07 A3033 RMK A01 T10491071  RH  084%=      5-min Rain = 0
KPD1 111425Z 35027KT M05/M07 A3034 RMK A01 T10491072  RH  084%=      5-min Rain = 0
KPD1 111426Z 35027G34KT M05/M07 A3034 RMK A01 T10491073  RH  084%=      5-min Rain = 0
KPD1 111427Z 36018G26KT M05/M07 A3034 RMK A01 T10501073  RH  084%=      5-min Rain = 0
KPD1 111428Z 00024G33KT M05/M07 A3034 RMK A01 T10501073  RH  084%=      5-min Rain = 0
KPD1 111429Z 36021G33KT M05/M07 A3034 RMK A01 T10511074  RH  084%=      5-min Rain = 0
KPD1 111430Z 01024G31KT M05/M08 A3034 RMK A01 T10511075  RH  084%=      5-min Rain = 0
KPD1 111431Z 00028G39KT M05/M08 A3034 RMK A01 T10521076  RH  083%=      5-min Rain = 0
KPD1 111432Z 00028G35KT M05/M08 A3034 RMK A01 T10521076  RH  083%=      5-min Rain = 0
KPD1 111433Z 01024G31KT M05/M08 A3035 RMK A01 T10531077  RH  083%=      5-min Rain = 0
KPD1 111434Z 36021G29KT M05/M08 A3035 RMK A01 T10531078  RH  083%=      5-min Rain = 0
KPD1 111435Z 36017G22KT M05/M08 A3035 RMK A01 T10531078  RH  083%=      5-min Rain = 0
KPD1 111436Z 01024G31KT M05/M08 A3035 RMK A01 T10531077  RH  083%=      5-min Rain = 0
KPD1 111437Z 00020KT M05/M08 A3035 RMK A01 T10521077  RH  083%=      5-min Rain = 0
KPD1 111438Z 36021G31KT M05/M08 A3035 RMK A01 T10521078  RH  082%=      5-min Rain = 0
KPD1 111439Z 00025G32KT M05/M08 A3035 RMK A01 T10521079  RH  082%=      5-min Rain = 0
KPD1 111440Z 36025G35KT M05/M08 A3035 RMK A01 T10521080  RH  081%=      5-min Rain = 0
KPD1 111441Z 01023G32KT M05/M08 A3035 RMK A01 T10521079  RH  081%=      5-min Rain = 0
KPD1 111442Z 01023G30KT M05/M08 A3035 RMK A01 T10521079  RH  081%=      5-min Rain = 0
KPD1 111443Z 00021G26KT M05/M08 A3035 RMK A01 T10521079  RH  081%=      5-min Rain = 0
KPD1 111444Z 36021G29KT M05/M08 A3035 RMK A01 T10521079  RH  081%=      5-min Rain = 0
KPD1 111445Z 35025G31KT M05/M08 A3035 RMK A01 T10521079  RH  081%=      5-min Rain = 0
KPD1 111446Z 35025G30KT M05/M08 A3035 RMK A01 T10521079  RH  081%=      5-min Rain = 0
KPD1 111447Z 36020G26KT M05/M08 A3035 RMK A01 T10521079  RH  081%=      5-min Rain = 0
KPD1 111448Z 35020G25KT M05/M08 A3036 RMK A01 T10521080  RH  081%=      5-min Rain = 0
KPD1 111449Z 36018G27KT M05/M08 A3035 RMK A01 T10521079  RH  081%=      5-min Rain = 0
KPD1 111450Z 35020G26KT M05/M08 A3036 RMK A01 T10521079  RH  081%=      5-min Rain = 0
KPD1 111451Z 36022KT M05/M08 A3036 RMK A01 T10511079  RH  081%=      5-min Rain = 0
KPD1 111452Z 36022G31KT M05/M08 A3036 RMK A01 T10511079  RH  081%=      5-min Rain = 0
KPD1 111453Z 36020G25KT M05/M08 A3036 RMK A01 T10521079  RH  081%=      5-min Rain = 0
KPD1 111454Z 36021G26KT M05/M08 A3036 RMK A01 T10521079  RH  081%=      5-min Rain = 0
KPD1 111455Z 00025G30KT M05/M08 A3036 RMK A01 T10511079  RH  081%=      5-min Rain = 0
KPD1 111456Z 00024G31KT M05/M08 A3035 RMK A01 T10521079  RH  081%=      5-min Rain = 0
KPD1 111457Z 36023G29KT M05/M08 A3035 RMK A01 T10521079  RH  081%=      5-min Rain = 0
KPD1 111458Z 36022G30KT M05/M08 A3035 RMK A01 T10521079  RH  081%=      5-min Rain = 0
KPD1 111459Z 00025G34KT M05/M08 A3035 RMK A01 T10521079  RH  081%=      5-min Rain = 0
KPD1 111500Z 36028G36KT M05/M08 A3035 RMK A01 T10521079  RH  081%=      5-min Rain = 0
KPD1 111501Z 00022G32KT M05/M08 A3035 RMK A01 T10521079  RH  081%=      5-min Rain = 0
KPD1 111502Z 01028G36KT M05/M08 A3036 RMK A01 T10521079  RH  081%=      5-min Rain = 0
KPD1 111503Z 00029G36KT M05/M08 A3035 RMK A01 T10521079  RH  081%=      5-min Rain = 0
KPD1 111504Z 01026G35KT M05/M08 A3035 RMK A01 T10521079  RH  081%=      5-min Rain = 0
KPD1 111505Z 36025G33KT M05/M08 A3035 RMK A01 T10521079  RH  081%=      5-min Rain = 0
KPD1 111506Z 36020G27KT M05/M08 A3035 RMK A01 T10521079  RH  081%=      5-min Rain = 0
KPD1 111507Z 35022G29KT M05/M08 A3035 RMK A01 T10511078  RH  081%=      5-min Rain = 0
KPD1 111508Z 35021G26KT M05/M08 A3035 RMK A01 T10511078  RH  081%=      5-min Rain = 0
KPD1 111509Z 00022G28KT M05/M08 A3035 RMK A01 T10501078  RH  081%=      5-min Rain = 0
KPD1 111510Z 01023G30KT M05/M08 A3035 RMK A01 T10511078  RH  081%=      5-min Rain = 0
KPD1 111511Z 35025G36KT M05/M08 A3035 RMK A01 T10511078  RH  081%=      5-min Rain = 0
KPD1 111512Z 35025G34KT M05/M08 A3035 RMK A01 T10511078  RH  081%=      5-min Rain = 0
KPD1 111513Z 00025KT M05/M08 A3036 RMK A01 T10511078  RH  082%=      5-min Rain = 0
KPD1 111514Z 35022G29KT M05/M08 A3036 RMK A01 T10511078  RH  082%=      5-min Rain = 0
KPD1 111515Z 00022G29KT M05/M08 A3036 RMK A01 T10511078  RH  082%=      5-min Rain = 0
KPD1 111516Z 36017KT M05/M08 A3036 RMK A01 T10511077  RH  082%=      5-min Rain = 0
KPD1 111517Z 35019G25KT M05/M08 A3036 RMK A01 T10511076  RH  082%=      5-min Rain = 0
KPD1 111518Z 35019G30KT M05/M08 A3036 RMK A01 T10511076  RH  082%=      5-min Rain = 0
KPD1 111519Z 35021G30KT M05/M08 A3036 RMK A01 T10511076  RH  083%=      5-min Rain = 0
KPD1 111520Z 36026G33KT M05/M08 A3036 RMK A01 T10511076  RH  083%=      5-min Rain = 0
KPD1 111521Z 00027G34KT M05/M08 A3036 RMK A01 T10511077  RH  082%=      5-min Rain = 0
KPD1 111522Z 01024G33KT M05/M08 A3036 RMK A01 T10511078  RH  081%=      5-min Rain = 0
KPD1 111523Z 01030G36KT M05/M08 A3036 RMK A01 T10511079  RH  081%=      5-min Rain = 0
KPD1 111524Z 01027G36KT M05/M08 A3037 RMK A01 T10521081  RH  080%=      5-min Rain = 0
KPD1 111525Z 00024G32KT M05/M08 A3037 RMK A01 T10521082  RH  080%=      5-min Rain = 0
KPD1 111526Z 36022G31KT M05/M08 A3037 RMK A01 T10521082  RH  079%=      5-min Rain = 0
KPD1 111527Z 35023G29KT M05/M08 A3037 RMK A01 T10521082  RH  079%=      5-min Rain = 0
KPD1 111528Z 00023G32KT M05/M08 A3037 RMK A01 T10521082  RH  080%=      5-min Rain = 0
KPD1 111529Z 35025G32KT M05/M08 A3037 RMK A01 T10531082  RH  080%=      5-min Rain = 0
KPD1 111530Z 36026G35KT M05/M08 A3037 RMK A01 T10531083  RH  080%=      5-min Rain = 0
KPD1 111531Z 35027G37KT M06/M08 A3037 RMK A01 T10551084  RH  080%=      5-min Rain = 0
KPD1 111532Z 35026G32KT M06/M09 A3037 RMK A01 T10561085  RH  080%=      5-min Rain = 0
KPD1 111533Z 36026G33KT M06/M09 A3037 RMK A01 T10571086  RH  080%=      5-min Rain = 0
KPD1 111534Z 35031G38KT M06/M09 A3037 RMK A01 T10571087  RH  080%=      5-min Rain = 0
KPD1 111535Z 35024G31KT M06/M09 A3037 RMK A01 T10571087  RH  080%=      5-min Rain = 0
KPD1 111536Z 35019G30KT M06/M09 A3038 RMK A01 T10571087  RH  080%=      5-min Rain = 0
KPD1 111537Z 35021G27KT M06/M09 A3038 RMK A01 T10561086  RH  079%=      5-min Rain = 0
KPD1 111538Z 36022G28KT M06/M09 A3038 RMK A01 T10561086  RH  079%=      5-min Rain = 0
KPD1 111539Z 01021G26KT M06/M09 A3038 RMK A01 T10551087  RH  079%=      5-min Rain = 0
KPD1 111540Z 36026G34KT M06/M09 A3038 RMK A01 T10551087  RH  078%=      5-min Rain = 0
KPD1 111541Z 00024G30KT M06/M09 A3038 RMK A01 T10551087  RH  078%=      5-min Rain = 0
KPD1 111542Z 36022G27KT M06/M09 A3038 RMK A01 T10551087  RH  078%=      5-min Rain = 0
KPD1 111543Z 00022G31KT M06/M09 A3038 RMK A01 T10551087  RH  078%=      5-min Rain = 0
KPD1 111544Z 36027G37KT M06/M09 A3038 RMK A01 T10551087  RH  078%=      5-min Rain = 0
KPD1 111545Z 01024G29KT M06/M09 A3038 RMK A01 T10561087  RH  079%=      5-min Rain = 0
KPD1 111546Z 36021G26KT M06/M09 A3038 RMK A01 T10561087  RH  079%=      5-min Rain = 0
KPD1 111547Z 35027G37KT M06/M09 A3038 RMK A01 T10561086  RH  079%=      5-min Rain = 0
KPD1 111548Z 35028G35KT M06/M09 A3039 RMK A01 T10571087  RH  079%=      5-min Rain = 0
KPD1 111549Z 35026G34KT M06/M09 A3039 RMK A01 T10581087  RH  080%=      5-min Rain = 0
KPD1 111550Z 36026G33KT M06/M09 A3039 RMK A01 T10571086  RH  080%=      5-min Rain = 0
KPD1 111551Z 35026G36KT M06/M09 A3039 RMK A01 T10571085  RH  081%=      5-min Rain = 0
KPD1 111552Z 36027G33KT M06/M09 A3039 RMK A01 T10581085  RH  081%=      5-min Rain = 0
KPD1 111553Z 36024G31KT M06/M09 A3039 RMK A01 T10581085  RH  081%=      5-min Rain = 0
KPD1 111554Z 35022G28KT M06/M08 A3039 RMK A01 T10581084  RH  082%=      5-min Rain = 0
KPD1 111555Z 36020G31KT M06/M08 A3039 RMK A01 T10571083  RH  082%=      5-min Rain = 0
KPD1 111556Z 00022G28KT M06/M08 A3039 RMK A01 T10571083  RH  082%=      5-min Rain = 0
KPD1 111557Z 35021G27KT M06/M08 A3039 RMK A01 T10571083  RH  082%=      5-min Rain = 0
KPD1 111558Z 34025G33KT M06/M08 A3039 RMK A01 T10571083  RH  082%=      5-min Rain = 0
KPD1 111559Z 00027G37KT M06/M09 A3039 RMK A01 T10581085  RH  081%=      5-min Rain = 0
KPD1 111600Z 36023G34KT M06/M09 A304 RMK A01 T10591088  RH  081%=      5-min Rain = 0
KPD1 111601Z 36020G29KT M06/M09 A304 RMK A01 T10601088  RH  080%=      5-min Rain = 0
KPD1 111602Z 00029G34KT M06/M09 A304 RMK A01 T10601088  RH  080%=      5-min Rain = 0
KPD1 111603Z 35025G34KT M06/M09 A304 RMK A01 T10611090  RH  080%=      5-min Rain = 0
KPD1 111604Z 35028G37KT M06/M09 A304 RMK A01 T10611092  RH  079%=      5-min Rain = 0
KPD1 111605Z 35027G32KT M06/M09 A304 RMK A01 T10621093  RH  079%=      5-min Rain = 0
KPD1 111606Z 34029G40KT M06/M10 A304 RMK A01 T10631095  RH  078%=      5-min Rain = 0
KPD1 111607Z 35028G37KT M06/M10 A304 RMK A01 T10631095  RH  078%=      5-min Rain = 0
KPD1 111608Z 35028G33KT M06/M10 A304 RMK A01 T10621095  RH  077%=      5-min Rain = 0
KPD1 111609Z 36024G30KT M06/M10 A3041 RMK A01 T10621096  RH  077%=      5-min Rain = 0
KPD1 111610Z 35025G33KT M06/M10 A3041 RMK A01 T10621097  RH  076%=      5-min Rain = 0
KPD1 111611Z 00025KT M06/M10 A3041 RMK A01 T10611097  RH  076%=      5-min Rain = 0
KPD1 111612Z 35028G40KT M06/M10 A3041 RMK A01 T10611097  RH  075%=      5-min Rain = 0
KPD1 111613Z 36031G40KT M06/M10 A3041 RMK A01 T10611098  RH  075%=      5-min Rain = 0
KPD1 111614Z 36034G45KT M06/M10 A3041 RMK A01 T10611099  RH  074%=      5-min Rain = 0
KPD1 111615Z 00032G39KT M06/M10 A3041 RMK A01 T10611099  RH  074%=      5-min Rain = 0
KPD1 111616Z 00026G34KT M06/M10 A3041 RMK A01 T10611100  RH  074%=      5-min Rain = 0
KPD1 111617Z 36017G23KT M06/M10 A3041 RMK A01 T10611099  RH  075%=      5-min Rain = 0
KPD1 111618Z 36022G28KT M06/M10 A3041 RMK A01 T10611097  RH  075%=      5-min Rain = 0
KPD1 111619Z 36023G30KT M06/M10 A3042 RMK A01 T10601096  RH  076%=      5-min Rain = 0
KPD1 111620Z 36020G26KT M06/M10 A3042 RMK A01 T10601096  RH  076%=      5-min Rain = 0
KPD1 111621Z 35019G24KT M06/M10 A3042 RMK A01 T10601096  RH  076%=      5-min Rain = 0
KPD1 111622Z 34022G31KT M06/M10 A3042 RMK A01 T10601095  RH  076%=      5-min Rain = 0
KPD1 111623Z 35028G34KT M06/M10 A3042 RMK A01 T10601095  RH  076%=      5-min Rain = 0
KPD1 111624Z 35023G31KT M06/M10 A3042 RMK A01 T10611096  RH  076%=      5-min Rain = 0
KPD1 111625Z 36022G32KT M06/M10 A3042 RMK A01 T10611096  RH  076%=      5-min Rain = 0
KPD1 111626Z 35026G31KT M06/M10 A3042 RMK A01 T10611096  RH  077%=      5-min Rain = 0
KPD1 111627Z 35022G27KT M06/M10 A3042 RMK A01 T10611096  RH  076%=      5-min Rain = 0
KPD1 111628Z 35025G31KT M06/M10 A3042 RMK A01 T10621097  RH  076%=      5-min Rain = 0
KPD1 111629Z 36023G30KT M06/M10 A3042 RMK A01 T10621097  RH  076%=      5-min Rain = 0
KPD1 111630Z 01021G31KT M06/M10 A3043 RMK A01 T10621097  RH  076%=      5-min Rain = 0
KPD1 111631Z 35020G25KT M06/M10 A3043 RMK A01 T10621097  RH  076%=      5-min Rain = 0
KPD1 111632Z 36025G32KT M06/M10 A3043 RMK A01 T10621097  RH  076%=      5-min Rain = 0
KPD1 111633Z 36024KT M06/M10 A3043 RMK A01 T10621097  RH  076%=      5-min Rain = 0
KPD1 111634Z 36025G30KT M06/M10 A3043 RMK A01 T10621098  RH  075%=      5-min Rain = 0
KPD1 111635Z 36027G35KT M06/M10 A3043 RMK A01 T10621099  RH  075%=      5-min Rain = 0
KPD1 111636Z 36026G34KT M06/M10 A3043 RMK A01 T10621100  RH  075%=      5-min Rain = 0
KPD1 111637Z 36026KT M06/M10 A3043 RMK A01 T10621100  RH  074%=      5-min Rain = 0
KPD1 111638Z 35022G29KT M06/M10 A3043 RMK A01 T10621101  RH  074%=      5-min Rain = 0
KPD1 111639Z 35023G29KT M06/M10 A3044 RMK A01 T10621101  RH  074%=      5-min Rain = 0
KPD1 111640Z 00021G33KT M06/M10 A3044 RMK A01 T10621100  RH  074%=      5-min Rain = 0
KPD1 111641Z 36019G24KT M06/M10 A3044 RMK A01 T10611100  RH  074%=      5-min Rain = 0
KPD1 111642Z 35020G25KT M06/M10 A3044 RMK A01 T10611100  RH  074%=      5-min Rain = 0
KPD1 111643Z 00027G34KT M06/M10 A3044 RMK A01 T10611100  RH  074%=      5-min Rain = 0
KPD1 111644Z 36021G28KT M06/M10 A3044 RMK A01 T10611100  RH  074%=      5-min Rain = 0
KPD1 111645Z 00022G30KT M06/M10 A3044 RMK A01 T10611100  RH  074%=      5-min Rain = 0
KPD1 111646Z 00021G29KT M06/M10 A3044 RMK A01 T10611101  RH  074%=      5-min Rain = 0
KPD1 111647Z 01026G36KT M06/M10 A3044 RMK A01 T10611102  RH  073%=      5-min Rain = 0
KPD1 111648Z 35023G29KT M06/M10 A3045 RMK A01 T10621103  RH  072%=      5-min Rain = 0
KPD1 111649Z 00022G30KT M06/M10 A3045 RMK A01 T10621104  RH  072%=      5-min Rain = 0
KPD1 111650Z 35023G30KT M06/M10 A3045 RMK A01 T10621104  RH  072%=      5-min Rain = 0
KPD1 111651Z 36021G31KT M06/M11 A3045 RMK A01 T10621105  RH  072%=      5-min Rain = 0
KPD1 111652Z 01026G34KT M06/M11 A3045 RMK A01 T10621105  RH  072%=      5-min Rain = 0
KPD1 111653Z 00028G36KT M06/M11 A3045 RMK A01 T10631107  RH  071%=      5-min Rain = 0
KPD1 111654Z 36021G33KT M06/M11 A3044 RMK A01 T10631107  RH  071%=      5-min Rain = 0
KPD1 111655Z 36023G32KT M06/M11 A3045 RMK A01 T10631106  RH  071%=      5-min Rain = 0
KPD1 111656Z 01027G33KT M06/M11 A3045 RMK A01 T10631106  RH  071%=      5-min Rain = 0
KPD1 111657Z 35026G39KT M06/M11 A3045 RMK A01 T10621106  RH  071%=      5-min Rain = 0
KPD1 111658Z 01027G37KT M06/M11 A3045 RMK A01 T10621106  RH  071%=      5-min Rain = 0
KPD1 111659Z 35024G33KT M06/M11 A3045 RMK A01 T10631107  RH  071%=      5-min Rain = 0
KPD1 111700Z 36022G29KT M06/M11 A3045 RMK A01 T10631107  RH  071%=      5-min Rain = 0
KPD1 111701Z 35024G37KT M06/M11 A3045 RMK A01 T10631106  RH  071%=      5-min Rain = 0
KPD1 111702Z 01021G31KT M06/M11 A3045 RMK A01 T10631106  RH  071%=      5-min Rain = 0
KPD1 111703Z 35023G33KT M06/M11 A3045 RMK A01 T10621107  RH  071%=      5-min Rain = 0
KPD1 111704Z 35030G37KT M06/M11 A3045 RMK A01 T10631108  RH  070%=      5-min Rain = 0
KPD1 111705Z 35029G36KT M06/M11 A3045 RMK A01 T10631109  RH  070%=      5-min Rain = 0
KPD1 111706Z 36022G28KT M06/M11 A3045 RMK A01 T10631110  RH  070%=      5-min Rain = 0
KPD1 111707Z 00025G37KT M06/M11 A3045 RMK A01 T10631109  RH  070%=      5-min Rain = 0
KPD1 111708Z 35028G33KT M06/M11 A3045 RMK A01 T10621109  RH  070%=      5-min Rain = 0
KPD1 111709Z 36024G36KT M06/M11 A3046 RMK A01 T10621109  RH  069%=      5-min Rain = 0
KPD1 111710Z 35021G29KT M06/M11 A3046 RMK A01 T10621109  RH  069%=      5-min Rain = 0
KPD1 111711Z 35026G32KT M06/M11 A3046 RMK A01 T10621109  RH  069%=      5-min Rain = 0
KPD1 111712Z 36021G28KT M06/M11 A3046 RMK A01 T10621109  RH  069%=      5-min Rain = 0
KPD1 111713Z 00019G27KT M06/M11 A3046 RMK A01 T10621109  RH  069%=      5-min Rain = 0
KPD1 111714Z 35023G30KT M06/M11 A3046 RMK A01 T10611107  RH  070%=      5-min Rain = 0
KPD1 111715Z 36022G30KT M06/M11 A3046 RMK A01 T10601107  RH  069%=      5-min Rain = 0
KPD1 111716Z 35020G25KT M06/M11 A3046 RMK A01 T10601107  RH  069%=      5-min Rain = 0
KPD1 111717Z 35019G24KT M06/M11 A3046 RMK A01 T10601107  RH  069%=      5-min Rain = 0
KPD1 111718Z 00017G25KT M06/M11 A3046 RMK A01 T10591107  RH  069%=      5-min Rain = 0
KPD1 111719Z 01024G31KT M06/M11 A3046 RMK A01 T10581106  RH  069%=      5-min Rain = 0
KPD1 111720Z 35021G28KT M06/M11 A3046 RMK A01 T10581107  RH  068%=      5-min Rain = 0
KPD1 111721Z 35024G31KT M06/M11 A3046 RMK A01 T10591108  RH  068%=      5-min Rain = 0
KPD1 111722Z 36026G33KT M06/M11 A3046 RMK A01 T10581108  RH  068%=      5-min Rain = 0
KPD1 111723Z 35027G34KT M06/M11 A3046 RMK A01 T10591108  RH  068%=      5-min Rain = 0
KPD1 111724Z 36023G32KT M06/M11 A3046 RMK A01 T10591108  RH  068%=      5-min Rain = 0
KPD1 111725Z 00024G34KT M06/M11 A3046 RMK A01 T10591108  RH  068%=      5-min Rain = 0
KPD1 111726Z 00022G28KT M06/M11 A3046 RMK A01 T10591108  RH  068%=      5-min Rain = 0
KPD1 111727Z 35023G31KT M06/M11 A3046 RMK A01 T10591108  RH  068%=      5-min Rain = 0
KPD1 111728Z 35019G25KT M06/M11 A3046 RMK A01 T10591109  RH  068%=      5-min Rain = 0
KPD1 111729Z 35024G29KT M06/M11 A3046 RMK A01 T10581108  RH  068%=      5-min Rain = 0
KPD1 111730Z 36020G29KT M06/M11 A3046 RMK A01 T10571107  RH  068%=      5-min Rain = 0
KPD1 111731Z 36024G30KT M06/M11 A3046 RMK A01 T10571107  RH  068%=      5-min Rain = 0
KPD1 111732Z 36021G29KT M06/M11 A3046 RMK A01 T10571108  RH  067%=      5-min Rain = 0
KPD1 111733Z 35020G25KT M06/M11 A3046 RMK A01 T10561107  RH  067%=      5-min Rain = 0
KPD1 111734Z 36019G25KT M06/M11 A3046 RMK A01 T10561107  RH  067%=      5-min Rain = 0
KPD1 111735Z 35022G29KT M06/M11 A3046 RMK A01 T10561107  RH  067%=      5-min Rain = 0
KPD1 111736Z 36021G32KT M06/M11 A3046 RMK A01 T10551107  RH  067%=      5-min Rain = 0
KPD1 111737Z 36018G24KT M06/M11 A3046 RMK A01 T10551107  RH  067%=      5-min Rain = 0
KPD1 111738Z 35019G27KT M06/M11 A3047 RMK A01 T10561107  RH  067%=      5-min Rain = 0
KPD1 111739Z 35024G30KT M06/M11 A3047 RMK A01 T10551107  RH  067%=      5-min Rain = 0
KPD1 111740Z 35023KT M06/M11 A3047 RMK A01 T10551107  RH  067%=      5-min Rain = 0
KPD1 111741Z 35022G28KT M06/M11 A3047 RMK A01 T10561108  RH  067%=      5-min Rain = 0
KPD1 111742Z 35025G31KT M06/M11 A3047 RMK A01 T10561108  RH  067%=      5-min Rain = 0
KPD1 111743Z 35020KT M06/M11 A3047 RMK A01 T10571108  RH  067%=      5-min Rain = 0
KPD1 111744Z 36016G22KT M06/M11 A3047 RMK A01 T10561107  RH  067%=      5-min Rain = 0
KPD1 111745Z 36019G26KT M06/M11 A3048 RMK A01 T10561106  RH  068%=      5-min Rain = 0
KPD1 111746Z 01018G26KT M06/M11 A3048 RMK A01 T10551106  RH  068%=      5-min Rain = 0
KPD1 111747Z 35018G23KT M06/M11 A3048 RMK A01 T10551105  RH  068%=      5-min Rain = 0
KPD1 111748Z 00021G27KT M06/M11 A3048 RMK A01 T10551106  RH  068%=      5-min Rain = 0
KPD1 111749Z 36017KT M06/M11 A3048 RMK A01 T10551106  RH  068%=      5-min Rain = 0
KPD1 111750Z 35013KT M06/M11 A3048 RMK A01 T10551106  RH  068%=      5-min Rain = 0
KPD1 111751Z 35015G25KT M06/M11 A3048 RMK A01 T10551105  RH  068%=      5-min Rain = 0
KPD1 111752Z 35016KT M05/M11 A3048 RMK A01 T10541105  RH  068%=      5-min Rain = 0
KPD1 111753Z 35020G28KT M05/M11 A3048 RMK A01 T10541106  RH  067%=      5-min Rain = 0
KPD1 111754Z 36017G24KT M06/M11 A3048 RMK A01 T10551107  RH  067%=      5-min Rain = 0
KPD1 111755Z 36026G33KT M06/M11 A3049 RMK A01 T10551108  RH  066%=      5-min Rain = 0
KPD1 111756Z 36021G29KT M06/M11 A3048 RMK A01 T10561109  RH  066%=      5-min Rain = 0
KPD1 111757Z 35027G33KT M06/M11 A3048 RMK A01 T10561109  RH  066%=      5-min Rain = 0
KPD1 111758Z 00018G23KT M06/M11 A3048 RMK A01 T10571110  RH  066%=      5-min Rain = 0
KPD1 111759Z 36019G26KT M06/M11 A3049 RMK A01 T10571110  RH  066%=      5-min Rain = 0
KPD1 111800Z 35019G24KT M06/M11 A3049 RMK A01 T10571110  RH  066%=      5-min Rain = 0
KPD1 111801Z 35016G27KT M06/M11 A3049 RMK A01 T10561109  RH  066%=      5-min Rain = 0
KPD1 111802Z 35020KT M06/M11 A3049 RMK A01 T10551108  RH  066%=      5-min Rain = 0
KPD1 111803Z 35017G24KT M06/M11 A3048 RMK A01 T10551109  RH  066%=      5-min Rain = 0
KPD1 111804Z 35022G28KT M06/M11 A3048 RMK A01 T10551110  RH  065%=      5-min Rain = 0
KPD1 111805Z 35022G27KT M06/M11 A3048 RMK A01 T10551111  RH  065%=      5-min Rain = 0
KPD1 111806Z 35019G31KT M06/M11 A3049 RMK A01 T10551111  RH  065%=      5-min Rain = 0
KPD1 111807Z 01023G37KT M06/M11 A3049 RMK A01 T10551111  RH  064%=      5-min Rain = 0
KPD1 111808Z 36025G35KT M05/M11 A3049 RMK A01 T10541111  RH  064%=      5-min Rain = 0
KPD1 111809Z 00026G35KT M05/M11 A3049 RMK A01 T10541112  RH  064%=      5-min Rain = 0
KPD1 111810Z 00026G31KT M06/M11 A3048 RMK A01 T10551113  RH  063%=      5-min Rain = 0
KPD1 111811Z 00026G36KT M05/M11 A3048 RMK A01 T10541114  RH  063%=      5-min Rain = 0
KPD1 111812Z 00025G30KT M05/M11 A3048 RMK A01 T10541114  RH  063%=      5-min Rain = 0
KPD1 111813Z 00023G30KT M05/M11 A3049 RMK A01 T10531113  RH  063%=      5-min Rain = 0
KPD1 111814Z 01021G28KT M05/M11 A3048 RMK A01 T10521113  RH  063%=      5-min Rain = 0
KPD1 111815Z 01019G24KT M05/M11 A3048 RMK A01 T10521112  RH  063%=      5-min Rain = 0
KPD1 111816Z 01017G25KT M05/M11 A3048 RMK A01 T10511111  RH  063%=      5-min Rain = 0
KPD1 111817Z 01020KT M05/M11 A3049 RMK A01 T10501111  RH  063%=      5-min Rain = 0
KPD1 111818Z 00018G23KT M05/M11 A3049 RMK A01 T10501110  RH  063%=      5-min Rain = 0
KPD1 111819Z 00024KT M05/M11 A3049 RMK A01 T10491111  RH  062%=      5-min Rain = 0
KPD1 111820Z 36022G27KT M05/M11 A3048 RMK A01 T10501112  RH  062%=      5-min Rain = 0
KPD1 111821Z 00025G31KT M05/M11 A3048 RMK A01 T10501113  RH  062%=      5-min Rain = 0
KPD1 111822Z 01021G29KT M05/M11 A3048 RMK A01 T10501112  RH  062%=      5-min Rain = 0
KPD1 111823Z 00018KT M05/M11 A3048 RMK A01 T10491111  RH  062%=      5-min Rain = 0
KPD1 111824Z 36020G27KT M05/M11 A3048 RMK A01 T10481111  RH  061%=      5-min Rain = 0
KPD1 111825Z 00017G23KT M05/M11 A3048 RMK A01 T10471111  RH  061%=      5-min Rain = 0
KPD1 111826Z 36021G29KT M05/M11 A3048 RMK A01 T10471112  RH  061%=      5-min Rain = 0
KPD1 111827Z 00022G32KT M05/M11 A3048 RMK A01 T10471112  RH  060%=      5-min Rain = 0
KPD1 111828Z 01023KT M05/M11 A3048 RMK A01 T10471113  RH  060%=      5-min Rain = 0
KPD1 111829Z 00020G25KT M05/M11 A3048 RMK A01 T10471112  RH  060%=      5-min Rain = 0
KPD1 111830Z 35019G28KT M05/M11 A3048 RMK A01 T10461111  RH  060%=      5-min Rain = 0
KPD1 111831Z 36022G30KT M05/M11 A3048 RMK A01 T10451111  RH  060%=      5-min Rain = 0
KPD1 111832Z 01024G30KT M04/M11 A3048 RMK A01 T10441111  RH  060%=      5-min Rain = 0
KPD1 111833Z 01022G28KT M04/M11 A3048 RMK A01 T10441112  RH  059%=      5-min Rain = 0
KPD1 111834Z 00024G32KT M04/M11 A3048 RMK A01 T10441112  RH  059%=      5-min Rain = 0
KPD1 111835Z 36022G31KT M05/M11 A3048 RMK A01 T10451112  RH  059%=      5-min Rain = 0
KPD1 111836Z 35019G26KT M04/M11 A3048 RMK A01 T10441112  RH  059%=      5-min Rain = 0
KPD1 111837Z 01023G28KT M04/M11 A3048 RMK A01 T10431111  RH  059%=      5-min Rain = 0
KPD1 111838Z 01022G28KT M04/M11 A3048 RMK A01 T10431111  RH  059%=      5-min Rain = 0
KPD1 111839Z 00018G24KT M04/M11 A3048 RMK A01 T10431112  RH  059%=      5-min Rain = 0
KPD1 111840Z 35019KT M04/M11 A3048 RMK A01 T10431111  RH  059%=      5-min Rain = 0
KPD1 111841Z 35026KT M04/M11 A3048 RMK A01 T10421111  RH  059%=      5-min Rain = 0
KPD1 111842Z 35022KT M04/M11 A3048 RMK A01 T10421111  RH  058%=      5-min Rain = 0
KPD1 111843Z 36019G25KT M04/M11 A3048 RMK A01 T10411111  RH  058%=      5-min Rain = 0
KPD1 111844Z 00022G33KT M04/M11 A3048 RMK A01 T10401110  RH  058%=      5-min Rain = 0
KPD1 111845Z 01021KT M04/M11 A3048 RMK A01 T10401111  RH  058%=      5-min Rain = 0
KPD1 111846Z 35019G27KT M04/M11 A3048 RMK A01 T10401111  RH  058%=      5-min Rain = 0
KPD1 111847Z 36022G30KT M04/M11 A3048 RMK A01 T10391110  RH  058%=      5-min Rain = 0
KPD1 111848Z 01026G35KT M04/M11 A3048 RMK A01 T10381111  RH  057%=      5-min Rain = 0
KPD1 111849Z 01021G28KT M04/M11 A3048 RMK A01 T10401112  RH  057%=      5-min Rain = 0
KPD1 111850Z 01020G26KT M04/M11 A3048 RMK A01 T10391111  RH  057%=      5-min Rain = 0
KPD1 111851Z 01023G29KT M04/M11 A3048 RMK A01 T10391111  RH  057%=      5-min Rain = 0
KPD1 111852Z 36018G28KT M04/M11 A3048 RMK A01 T10391111  RH  058%=      5-min Rain = 0
KPD1 111853Z 35020G28KT M04/M11 A3047 RMK A01 T10391109  RH  058%=      5-min Rain = 0
KPD1 111854Z 35024G29KT M04/M11 A3047 RMK A01 T10381109  RH  058%=      5-min Rain = 0
KPD1 111855Z 35018G23KT M04/M11 A3047 RMK A01 T10391110  RH  058%=      5-min Rain = 0
KPD1 111856Z 35019G24KT M04/M11 A3047 RMK A01 T10391110  RH  058%=      5-min Rain = 0
KPD1 111857Z 35019G26KT M04/M11 A3047 RMK A01 T10391110  RH  058%=      5-min Rain = 0
KPD1 111858Z 00019G24KT M04/M11 A3048 RMK A01 T10391109  RH  058%=      5-min Rain = 0
KPD1 111859Z 01024G30KT M04/M11 A3047 RMK A01 T10381109  RH  058%=      5-min Rain = 0
KPD1 111900Z 01020G26KT M04/M11 A3047 RMK A01 T10381109  RH  058%=      5-min Rain = 0
KPD1 111901Z 36021G26KT M04/M11 A3047 RMK A01 T10371110  RH  057%=      5-min Rain = 0
KPD1 111902Z 36021KT M04/M11 A3047 RMK A01 T10371110  RH  057%=      5-min Rain = 0
KPD1 111903Z 35020G28KT M04/M11 A3048 RMK A01 T10361109  RH  057%=      5-min Rain = 0
KPD1 111904Z 35018G26KT M04/M11 A3048 RMK A01 T10361109  RH  057%=      5-min Rain = 0
KPD1 111905Z 35019G25KT M04/M11 A3048 RMK A01 T10361109  RH  057%=      5-min Rain = 0
KPD1 111906Z 35022G28KT M04/M11 A3048 RMK A01 T10361110  RH  057%=      5-min Rain = 0
KPD1 111907Z 36022G28KT M04/M11 A3048 RMK A01 T10381112  RH  057%=      5-min Rain = 0
KPD1 111908Z 35023G29KT M04/M11 A3048 RMK A01 T10381112  RH  057%=      5-min Rain = 0
KPD1 111909Z 00022G29KT M04/M11 A3048 RMK A01 T10381112  RH  057%=      5-min Rain = 0
KPD1 111910Z 36019G24KT M04/M11 A3048 RMK A01 T10381112  RH  057%=      5-min Rain = 0
KPD1 111911Z 36022G27KT M04/M11 A3048 RMK A01 T10381111  RH  057%=      5-min Rain = 0
KPD1 111912Z 36020G25KT M04/M11 A3047 RMK A01 T10371111  RH  057%=      5-min Rain = 0
KPD1 111913Z 01024G30KT M04/M11 A3047 RMK A01 T10361111  RH  056%=      5-min Rain = 0
KPD1 111914Z 01020G26KT M04/M11 A3047 RMK A01 T10361111  RH  056%=      5-min Rain = 0
KPD1 111915Z 35018G24KT M04/M11 A3047 RMK A01 T10351110  RH  056%=      5-min Rain = 0
KPD1 111916Z 36020G26KT M03/M11 A3047 RMK A01 T10341109  RH  056%=      5-min Rain = 0
KPD1 111917Z 35014KT M03/M11 A3047 RMK A01 T10331109  RH  056%=      5-min Rain = 0
KPD1 111918Z 35019G25KT M03/M11 A3047 RMK A01 T10331108  RH  056%=      5-min Rain = 0
KPD1 111919Z 36015G20KT M03/M11 A3047 RMK A01 T10331108  RH  056%=      5-min Rain = 0
KPD1 111920Z 01014KT M03/M11 A3047 RMK A01 T10311107  RH  056%=      5-min Rain = 0
KPD1 111921Z 36020G25KT M03/M11 A3047 RMK A01 T10311108  RH  056%=      5-min Rain = 0
KPD1 111922Z 35022KT M03/M11 A3047 RMK A01 T10311108  RH  055%=      5-min Rain = 0
KPD1 111923Z 00017G22KT M03/M11 A3047 RMK A01 T10321109  RH  055%=      5-min Rain = 0
KPD1 111924Z 35013G18KT M03/M11 A3047 RMK A01 T10311108  RH  056%=      5-min Rain = 0
KPD1 111925Z 36018G23KT M03/M11 A3047 RMK A01 T10301106  RH  056%=      5-min Rain = 0
KPD1 111926Z 01020G27KT M03/M11 A3047 RMK A01 T10291106  RH  055%=      5-min Rain = 0
KPD1 111927Z 01021G29KT M03/M11 A3047 RMK A01 T10291108  RH  054%=      5-min Rain = 0
KPD1 111928Z 00016KT M03/M11 A3047 RMK A01 T10291109  RH  054%=      5-min Rain = 0
KPD1 111929Z 00016KT M03/M11 A3047 RMK A01 T10271107  RH  054%=      5-min Rain = 0
KPD1 111930Z 36017G22KT M03/M11 A3047 RMK A01 T10261106  RH  054%=      5-min Rain = 0
KPD1 111931Z 36015G20KT M03/M11 A3047 RMK A01 T10261106  RH  054%=      5-min Rain = 0
KPD1 111932Z 35015G23KT M03/M11 A3047 RMK A01 T10261106  RH  054%=      5-min Rain = 0
KPD1 111933Z 36019G27KT M03/M11 A3047 RMK A01 T10251106  RH  054%=      5-min Rain = 0
KPD1 111934Z 36024KT M03/M11 A3047 RMK A01 T10261108  RH  053%=      5-min Rain = 0
KPD1 111935Z 35018G24KT M03/M11 A3047 RMK A01 T10271109  RH  053%=      5-min Rain = 0
KPD1 111936Z 35019G29KT M03/M11 A3047 RMK A01 T10271108  RH  054%=      5-min Rain = 0
KPD1 111937Z 35021G27KT M03/M11 A3046 RMK A01 T10261107  RH  054%=      5-min Rain = 0
KPD1 111938Z 35025KT M03/M11 A3047 RMK A01 T10261107  RH  054%=      5-min Rain = 0
KPD1 111939Z 35021G26KT M03/M11 A3047 RMK A01 T10251106  RH  053%=      5-min Rain = 0
KPD1 111940Z 35022G29KT M03/M11 A3047 RMK A01 T10251107  RH  053%=      5-min Rain = 0
KPD1 111941Z 01022G27KT M02/M11 A3047 RMK A01 T10241107  RH  053%=      5-min Rain = 0
KPD1 111942Z 01019KT M02/M11 A3047 RMK A01 T10241108  RH  053%=      5-min Rain = 0
KPD1 111943Z 00017KT M03/M11 A3047 RMK A01 T10251108  RH  053%=      5-min Rain = 0
KPD1 111944Z 35016G23KT M02/M11 A3047 RMK A01 T10241107  RH  053%=      5-min Rain = 0
KPD1 111945Z 00019G25KT M02/M11 A3047 RMK A01 T10231106  RH  053%=      5-min Rain = 0
KPD1 111946Z 36018G23KT M02/M11 A3047 RMK A01 T10231107  RH  052%=      5-min Rain = 0
KPD1 111947Z 00020G26KT M02/M11 A3047 RMK A01 T10221108  RH  052%=      5-min Rain = 0
KPD1 111948Z 36022KT M02/M11 A3047 RMK A01 T10231108  RH  052%=      5-min Rain = 0
KPD1 111949Z 00023KT M02/M11 A3047 RMK A01 T10241110  RH  052%=      5-min Rain = 0
KPD1 111950Z 00020G25KT M03/M11 A3047 RMK A01 T10251111  RH  052%=      5-min Rain = 0
KPD1 111951Z 01021G27KT M02/M11 A3047 RMK A01 T10241108  RH  052%=      5-min Rain = 0
KPD1 111952Z 00020G27KT M02/M11 A3047 RMK A01 T10221108  RH  052%=      5-min Rain = 0
KPD1 111953Z 36018G23KT M02/M11 A3047 RMK A01 T10221109  RH  052%=      5-min Rain = 0
KPD1 111954Z 00015G20KT M02/M11 A3047 RMK A01 T10221108  RH  052%=      5-min Rain = 0
KPD1 111955Z 35018G23KT M02/M11 A3047 RMK A01 T10211108  RH  052%=      5-min Rain = 0
KPD1 111956Z 01015KT M02/M11 A3047 RMK A01 T10211109  RH  051%=      5-min Rain = 0
KPD1 111957Z 00012G17KT M02/M11 A3047 RMK A01 T10201107  RH  051%=      5-min Rain = 0
KPD1 111958Z 01016G23KT M02/M11 A3047 RMK A01 T10171105  RH  051%=      5-min Rain = 0
KPD1 111959Z 01019G27KT M02/M11 A3047 RMK A01 T10171107  RH  050%=      5-min Rain = 0
KPD1 112000Z 36021G28KT M02/M11 A3047 RMK A01 T10191109  RH  050%=      5-min Rain = 0
KPD1 112001Z 01018G27KT M02/M11 A3047 RMK A01 T10201110  RH  050%=      5-min Rain = 0
KPD1 112002Z 00024G29KT M02/M11 A3047 RMK A01 T10201110  RH  050%=      5-min Rain = 0
KPD1 112003Z 00018G24KT M02/M11 A3047 RMK A01 T10211111  RH  050%=      5-min Rain = 0
KPD1 112004Z 01018KT M02/M11 A3047 RMK A01 T10221111  RH  051%=      5-min Rain = 0
KPD1 112005Z 36021G29KT M02/M11 A3047 RMK A01 T10221111  RH  051%=      5-min Rain = 0
KPD1 112006Z 00019G24KT M02/M11 A3047 RMK A01 T10211110  RH  051%=      5-min Rain = 0
KPD1 112007Z 00022G28KT M02/M11 A3047 RMK A01 T10211111  RH  050%=      5-min Rain = 0
KPD1 112008Z 01023G30KT M02/M11 A3047 RMK A01 T10211112  RH  050%=      5-min Rain = 0
KPD1 112009Z 01019G27KT M02/M11 A3047 RMK A01 T10221112  RH  050%=      5-min Rain = 0
KPD1 112010Z 01022G28KT M02/M11 A3047 RMK A01 T10221112  RH  050%=      5-min Rain = 0
KPD1 112011Z 00023G29KT M02/M11 A3047 RMK A01 T10221112  RH  050%=      5-min Rain = 0
KPD1 112012Z 00019G24KT M02/M11 A3047 RMK A01 T10221112  RH  050%=      5-min Rain = 0
KPD1 112013Z 01023KT M02/M11 A3047 RMK A01 T10211111  RH  050%=      5-min Rain = 0
KPD1 112014Z 00021G28KT M02/M11 A3047 RMK A01 T10221112  RH  050%=      5-min Rain = 0
KPD1 112015Z 01017G26KT M02/M11 A3047 RMK A01 T10221112  RH  050%=      5-min Rain = 0
KPD1 112016Z 00017G24KT M02/M11 A3047 RMK A01 T10211111  RH  050%=      5-min Rain = 0
KPD1 112017Z 01015G20KT M02/M11 A3047 RMK A01 T10201110  RH  050%=      5-min Rain = 0
KPD1 112018Z 35019G24KT M02/M11 A3047 RMK A01 T10181108  RH  050%=      5-min Rain = 0
KPD1 112019Z 35016G24KT M02/M11 A3047 RMK A01 T10181109  RH  050%=      5-min Rain = 0
KPD1 112020Z 35014G21KT M02/M11 A3047 RMK A01 T10171107  RH  050%=      5-min Rain = 0
KPD1 112021Z 36019G24KT M02/M11 A3047 RMK A01 T10161108  RH  050%=      5-min Rain = 0
KPD1 112022Z 35012G21KT M02/M11 A3047 RMK A01 T10151107  RH  049%=      5-min Rain = 0
KPD1 112023Z 00017G23KT M01/M11 A3047 RMK A01 T10121105  RH  049%=      5-min Rain = 0
KPD1 112024Z 35020KT M01/M11 A3047 RMK A01 T10111106  RH  048%=      5-min Rain = 0
KPD1 112025Z 00017G22KT M01/M11 A3047 RMK A01 T10111108  RH  048%=      5-min Rain = 0
KPD1 112026Z 00016KT M01/M11 A3046 RMK A01 T10111108  RH  048%=      5-min Rain = 0
KPD1 112027Z 01017G26KT M01/M11 A3047 RMK A01 T10101107  RH  048%=      5-min Rain = 0
KPD1 112028Z 01020G25KT M01/M11 A3046 RMK A01 T10121109  RH  047%=      5-min Rain = 0
KPD1 112029Z 01018G23KT M01/M11 A3046 RMK A01 T10141111  RH  048%=      5-min Rain = 0
KPD1 112030Z 36024G31KT M02/M11 A3046 RMK A01 T10161111  RH  048%=      5-min Rain = 0
KPD1 112031Z 01022G28KT M02/M11 A3046 RMK A01 T10181112  RH  048%=      5-min Rain = 0
KPD1 112032Z 00018G23KT M02/M11 A3046 RMK A01 T10191112  RH  049%=      5-min Rain = 0
KPD1 112033Z 00021KT M02/M11 A3046 RMK A01 T10181110  RH  049%=      5-min Rain = 0
KPD1 112034Z 01013G18KT M02/M11 A3046 RMK A01 T10171109  RH  049%=      5-min Rain = 0
KPD1 112035Z 00020G27KT M02/M11 A3047 RMK A01 T10161109  RH  049%=      5-min Rain = 0
KPD1 112036Z 01018G23KT M02/M11 A3047 RMK A01 T10161110  RH  049%=      5-min Rain = 0
KPD1 112037Z 01019G27KT M02/M11 A3046 RMK A01 T10171111  RH  049%=      5-min Rain = 0
KPD1 112038Z 01020G25KT M02/M11 A3046 RMK A01 T10191112  RH  049%=      5-min Rain = 0
KPD1 112039Z 00023G28KT M02/M11 A3046 RMK A01 T10191112  RH  049%=      5-min Rain = 0
KPD1 112040Z 36018KT M02/M11 A3046 RMK A01 T10191111  RH  049%=      5-min Rain = 0
KPD1 112041Z 00021G28KT M02/M11 A3046 RMK A01 T10171109  RH  049%=      5-min Rain = 0
KPD1 112042Z 00021G28KT M02/M11 A3046 RMK A01 T10171111  RH  049%=      5-min Rain = 0
KPD1 112043Z 35020G26KT M02/M11 A3046 RMK A01 T10181112  RH  049%=      5-min Rain = 0
KPD1 112044Z 35020G29KT M02/M11 A3046 RMK A01 T10191112  RH  049%=      5-min Rain = 0
KPD1 112045Z 35021G26KT M02/M11 A3046 RMK A01 T10191112  RH  049%=      5-min Rain = 0
KPD1 112046Z 35023KT M02/M11 A3046 RMK A01 T10191113  RH  049%=      5-min Rain = 0
KPD1 112047Z 35022G31KT M02/M11 A3046 RMK A01 T10191113  RH  049%=      5-min Rain = 0
KPD1 112048Z 35020G29KT M02/M11 A3046 RMK A01 T10191113  RH  049%=      5-min Rain = 0
KPD1 112049Z 00015G22KT M02/M11 A3047 RMK A01 T10191112  RH  049%=      5-min Rain = 0
KPD1 112050Z 36018G24KT M02/M11 A3047 RMK A01 T10191112  RH  049%=      5-min Rain = 0
KPD1 112051Z 01020KT M02/M11 A3047 RMK A01 T10181111  RH  049%=      5-min Rain = 0
KPD1 112052Z 01021KT M02/M11 A3047 RMK A01 T10181111  RH  049%=      5-min Rain = 0
KPD1 112053Z 00019G27KT M02/M11 A3047 RMK A01 T10171111  RH  049%=      5-min Rain = 0
KPD1 112054Z 01019KT M02/M11 A3047 RMK A01 T10171111  RH  049%=      5-min Rain = 0
KPD1 112055Z 01019G28KT M02/M11 A3047 RMK A01 T10161110  RH  048%=      5-min Rain = 0
KPD1 112056Z 00017G24KT M02/M11 A3047 RMK A01 T10151110  RH  048%=      5-min Rain = 0
KPD1 112057Z 01021G27KT M02/M11 A3047 RMK A01 T10151111  RH  048%=      5-min Rain = 0
KPD1 112058Z 00025G31KT M01/M11 A3047 RMK A01 T10141110  RH  048%=      5-min Rain = 0
KPD1 112059Z 00020G29KT M01/M11 A3047 RMK A01 T10141111  RH  048%=      5-min Rain = 0
KPD1 112100Z 01021G26KT M02/M11 A3047 RMK A01 T10151110  RH  048%=      5-min Rain = 0
KPD1 112101Z 00020G25KT M02/M11 A3047 RMK A01 T10151111  RH  048%=      5-min Rain = 0
KPD1 112102Z 00022G27KT M02/M11 A3047 RMK A01 T10151111  RH  048%=      5-min Rain = 0
KPD1 112103Z 01019KT M02/M11 A3047 RMK A01 T10151110  RH  048%=      5-min Rain = 0
KPD1 112104Z 00014G22KT M01/M11 A3047 RMK A01 T10131109  RH  048%=      5-min Rain = 0
KPD1 112105Z 35018KT M01/M11 A3047 RMK A01 T10101107  RH  048%=      5-min Rain = 0
KPD1 112106Z 36017G22KT M01/M11 A3047 RMK A01 T10101108  RH  047%=      5-min Rain = 0
KPD1 112107Z 01015KT M01/M11 A3047 RMK A01 T10091108  RH  047%=      5-min Rain = 0
KPD1 112108Z 00014G20KT M01/M11 A3047 RMK A01 T10081107  RH  047%=      5-min Rain = 0
KPD1 112109Z 35015G28KT M01/M11 A3047 RMK A01 T10061105  RH  047%=      5-min Rain = 0
KPD1 112110Z 35020G26KT M00/M11 A3047 RMK A01 T10041105  RH  046%=      5-min Rain = 0
KPD1 112111Z 35018G24KT M01/M11 A3047 RMK A01 T10071109  RH  046%=      5-min Rain = 0
KPD1 112112Z 35023G29KT M01/M11 A3047 RMK A01 T10101111  RH  046%=      5-min Rain = 0
KPD1 112113Z 36018G23KT M01/M11 A3047 RMK A01 T10111112  RH  046%=      5-min Rain = 0
KPD1 112114Z 01021G26KT M01/M11 A3047 RMK A01 T10121111  RH  047%=      5-min Rain = 0
KPD1 112115Z 01020KT M01/M11 A3047 RMK A01 T10121110  RH  047%=      5-min Rain = 0
KPD1 112116Z 00015G23KT M01/M11 A3047 RMK A01 T10111109  RH  047%=      5-min Rain = 0
KPD1 112117Z 00016G22KT M01/M11 A3047 RMK A01 T10101109  RH  047%=      5-min Rain = 0
KPD1 112118Z 01015G21KT M01/M11 A3047 RMK A01 T10101109  RH  047%=      5-min Rain = 0
KPD1 112119Z 00019KT M01/M11 A3047 RMK A01 T10091109  RH  047%=      5-min Rain = 0
KPD1 112120Z 00018G25KT M01/M11 A3047 RMK A01 T10091109  RH  047%=      5-min Rain = 0
KPD1 112121Z 01012G18KT M01/M11 A3047 RMK A01 T10091109  RH  047%=      5-min Rain = 0
KPD1 112122Z 00011G16KT M01/M11 A3047 RMK A01 T10061106  RH  047%=      5-min Rain = 0
KPD1 112123Z 01015G22KT M00/M11 A3047 RMK A01 T10041106  RH  046%=      5-min Rain = 0
KPD1 112124Z 01017G24KT M00/M11 A3047 RMK A01 T10031106  RH  046%=      5-min Rain = 0
KPD1 112125Z 01021G28KT M01/M11 A3048 RMK A01 T10051110  RH  045%=      5-min Rain = 0
KPD1 112126Z 36016G22KT M01/M11 A3048 RMK A01 T10071110  RH  045%=      5-min Rain = 0
KPD1 112127Z 36012KT M01/M11 A3048 RMK A01 T10081110  RH  046%=      5-min Rain = 0
KPD1 112128Z 36014G21KT M01/M11 A3048 RMK A01 T10061108  RH  046%=      5-min Rain = 0
KPD1 112129Z 36017G23KT M01/M11 A3048 RMK A01 T10051109  RH  046%=      5-min Rain = 0
KPD1 112130Z 36020G30KT M01/M11 A3048 RMK A01 T10061111  RH  045%=      5-min Rain = 0
KPD1 112131Z 01021KT M01/M12 A3048 RMK A01 T10091115  RH  045%=      5-min Rain = 0
KPD1 112132Z 01019G27KT M01/M12 A3048 RMK A01 T10121117  RH  045%=      5-min Rain = 0
KPD1 112133Z 36020G26KT M01/M12 A3048 RMK A01 T10121117  RH  045%=      5-min Rain = 0
KPD1 112134Z 01019G24KT M01/M12 A3048 RMK A01 T10131117  RH  045%=      5-min Rain = 0
KPD1 112135Z 01019G24KT M01/M12 A3048 RMK A01 T10131117  RH  045%=      5-min Rain = 0
KPD1 112136Z 00022G28KT M01/M12 A3048 RMK A01 T10141117  RH  045%=      5-min Rain = 0
KPD1 112137Z 02016G24KT M01/M12 A3048 RMK A01 T10141117  RH  045%=      5-min Rain = 0
KPD1 112138Z 02017G23KT M01/M12 A3048 RMK A01 T10141118  RH  045%=      5-min Rain = 0
KPD1 112139Z 01018KT M01/M12 A3048 RMK A01 T10121117  RH  045%=      5-min Rain = 0
KPD1 112140Z 36020KT M01/M12 A3048 RMK A01 T10121117  RH  045%=      5-min Rain = 0
KPD1 112141Z 35018KT M01/M12 A3048 RMK A01 T10121118  RH  045%=      5-min Rain = 0
KPD1 112142Z 35021G29KT M01/M12 A3048 RMK A01 T10131119  RH  045%=      5-min Rain = 0
KPD1 112143Z 36014KT M02/M12 A3048 RMK A01 T10151120  RH  045%=      5-min Rain = 0
KPD1 112144Z 01014KT M02/M12 A3048 RMK A01 T10151119  RH  045%=      5-min Rain = 0
KPD1 112145Z 01014G20KT M02/M12 A3048 RMK A01 T10151120  RH  045%=      5-min Rain = 0
KPD1 112146Z 00015KT M02/M12 A3048 RMK A01 T10161120  RH  045%=      5-min Rain = 0
KPD1 112147Z 36014KT M02/M12 A3048 RMK A01 T10151119  RH  045%=      5-min Rain = 0
KPD1 112148Z 01013KT M02/M12 A3049 RMK A01 T10151119  RH  045%=      5-min Rain = 0
KPD1 112149Z 01011G16KT M02/M12 A3049 RMK A01 T10151119  RH  045%=      5-min Rain = 0
KPD1 112150Z 02012G19KT M01/M12 A3048 RMK A01 T10141119  RH  045%=      5-min Rain = 0
KPD1 112151Z 01013G20KT M01/M12 A3048 RMK A01 T10141120  RH  044%=      5-min Rain = 0
KPD1 112152Z 01015G20KT M01/M12 A3049 RMK A01 T10141121  RH  044%=      5-min Rain = 0
KPD1 112153Z 01018G23KT M02/M12 A3049 RMK A01 T10151121  RH  044%=      5-min Rain = 0
KPD1 112154Z 36019KT M02/M12 A3049 RMK A01 T10161122  RH  044%=      5-min Rain = 0
KPD1 112155Z 35018G24KT M02/M12 A3049 RMK A01 T10181123  RH  044%=      5-min Rain = 0
KPD1 112156Z 00018G24KT M02/M12 A3049 RMK A01 T10181123  RH  045%=      5-min Rain = 0
KPD1 112157Z 01017G24KT M02/M12 A3049 RMK A01 T10191123  RH  045%=      5-min Rain = 0
KPD1 112158Z 36019G25KT M02/M12 A3049 RMK A01 T10181122  RH  045%=      5-min Rain = 0
KPD1 112159Z 01018G23KT M02/M12 A3049 RMK A01 T10181122  RH  045%=      5-min Rain = 0
KPD1 112200Z 00021G28KT M02/M12 A3049 RMK A01 T10171121  RH  045%=      5-min Rain = 0
KPD1 112201Z 01021KT M02/M12 A3049 RMK A01 T10161120  RH  045%=      5-min Rain = 0
KPD1 112202Z 01019G25KT M02/M12 A3049 RMK A01 T10161121  RH  045%=      5-min Rain = 0
KPD1 112203Z 00021G29KT M02/M12 A3049 RMK A01 T10151120  RH  045%=      5-min Rain = 0
KPD1 112204Z 01020KT M02/M12 A3049 RMK A01 T10151121  RH  044%=      5-min Rain = 0
KPD1 112205Z 00016KT M02/M12 A3049 RMK A01 T10161120  RH  045%=      5-min Rain = 0
KPD1 112206Z 36018G25KT M02/M12 A3049 RMK A01 T10151120  RH  045%=      5-min Rain = 0
KPD1 112207Z 01018G25KT M01/M12 A3049 RMK A01 T10141119  RH  045%=      5-min Rain = 0
KPD1 112208Z 00018G25KT M01/M12 A3049 RMK A01 T10141119  RH  045%=      5-min Rain = 0
KPD1 112209Z 00020G26KT M02/M12 A3049 RMK A01 T10151120  RH  044%=      5-min Rain = 0
KPD1 112210Z 01018G23KT M02/M12 A3049 RMK A01 T10161123  RH  044%=      5-min Rain = 0
KPD1 112211Z 00016G21KT M02/M12 A305 RMK A01 T10171123  RH  044%=      5-min Rain = 0
KPD1 112212Z 36015G21KT M02/M12 A305 RMK A01 T10161123  RH  044%=      5-min Rain = 0
KPD1 112213Z 34017G22KT M02/M12 A305 RMK A01 T10151123  RH  044%=      5-min Rain = 0
KPD1 112214Z 00016KT M02/M12 A305 RMK A01 T10161124  RH  043%=      5-min Rain = 0
KPD1 112215Z 35016KT M02/M13 A305 RMK A01 T10161125  RH  043%=      5-min Rain = 0
KPD1 112216Z 35016G22KT M02/M13 A305 RMK A01 T10161126  RH  043%=      5-min Rain = 0
KPD1 112217Z 35014KT M02/M13 A3051 RMK A01 T10151127  RH  042%=      5-min Rain = 0
KPD1 112218Z 36020G27KT M02/M13 A3051 RMK A01 T10151129  RH  042%=      5-min Rain = 0
KPD1 112219Z 35022G27KT M02/M13 A3051 RMK A01 T10181133  RH  041%=      5-min Rain = 0
KPD1 112220Z 35022G31KT M02/M14 A3051 RMK A01 T10191135  RH  041%=      5-min Rain = 0
KPD1 112221Z 01017G22KT M02/M14 A3051 RMK A01 T10201136  RH  041%=      5-min Rain = 0
KPD1 112222Z 01012G18KT M02/M14 A3051 RMK A01 T10211136  RH  041%=      5-min Rain = 0
KPD1 112223Z 00014G21KT M02/M14 A305 RMK A01 T10211136  RH  041%=      5-min Rain = 0
KPD1 112224Z 36018G26KT M02/M14 A305 RMK A01 T10211136  RH  041%=      5-min Rain = 0
KPD1 112225Z 01019G25KT M02/M14 A305 RMK A01 T10211137  RH  040%=      5-min Rain = 0
KPD1 112226Z 01018G26KT M02/M14 A305 RMK A01 T10201138  RH  040%=      5-min Rain = 0
KPD1 112227Z 00018KT M02/M14 A305 RMK A01 T10211140  RH  040%=      5-min Rain = 0
KPD1 112228Z 01017KT M02/M14 A305 RMK A01 T10221141  RH  040%=      5-min Rain = 0
KPD1 112229Z 02012G19KT M02/M14 A305 RMK A01 T10221140  RH  040%=      5-min Rain = 0
KPD1 112230Z 00019G27KT M02/M14 A305 RMK A01 T10211139  RH  040%=      5-min Rain = 0
KPD1 112231Z 01020G26KT M02/M14 A305 RMK A01 T10201141  RH  039%=      5-min Rain = 0
KPD1 112232Z 00018KT M02/M14 A305 RMK A01 T10211142  RH  039%=      5-min Rain = 0
KPD1 112233Z 36018G24KT M02/M14 A305 RMK A01 T10211142  RH  039%=      5-min Rain = 0
KPD1 112234Z 00020G25KT M02/M14 A305 RMK A01 T10221144  RH  039%=      5-min Rain = 0
KPD1 112235Z 36018G26KT M02/M15 A305 RMK A01 T10231145  RH  039%=      5-min Rain = 0
KPD1 112236Z 00017G23KT M02/M15 A305 RMK A01 T10241145  RH  039%=      5-min Rain = 0
KPD1 112237Z 01013KT M03/M14 A305 RMK A01 T10251144  RH  039%=      5-min Rain = 0
KPD1 112238Z 00017G25KT M03/M14 A305 RMK A01 T10251144  RH  039%=      5-min Rain = 0
KPD1 112239Z 01019G29KT M03/M14 A3051 RMK A01 T10251144  RH  040%=      5-min Rain = 0
KPD1 112240Z 01014G21KT M03/M14 A3051 RMK A01 T10251144  RH  040%=      5-min Rain = 0
KPD1 112241Z 01021G27KT M03/M14 A3051 RMK A01 T10251144  RH  040%=      5-min Rain = 0
KPD1 112242Z 00017KT M03/M14 A3051 RMK A01 T10251144  RH  040%=      5-min Rain = 0
KPD1 112243Z 00015G24KT M03/M14 A3051 RMK A01 T10251144  RH  040%=      5-min Rain = 0
KPD1 112244Z 00017KT M03/M14 A3051 RMK A01 T10251144  RH  040%=      5-min Rain = 0
KPD1 112245Z 01017KT M03/M14 A3051 RMK A01 T10251144  RH  040%=      5-min Rain = 0
KPD1 112246Z 36014G20KT M03/M14 A3051 RMK A01 T10251143  RH  040%=      5-min Rain = 0
KPD1 112247Z 01013KT M03/M14 A3051 RMK A01 T10251143  RH  040%=      5-min Rain = 0
KPD1 112248Z 01016KT M03/M14 A3052 RMK A01 T10251142  RH  040%=      5-min Rain = 0
KPD1 112249Z 01016KT M03/M14 A3052 RMK A01 T10251143  RH  040%=      5-min Rain = 0
KPD1 112250Z 02017KT M03/M14 A3052 RMK A01 T10261143  RH  040%=      5-min Rain = 0
KPD1 112251Z 01014KT M03/M14 A3052 RMK A01 T10271144  RH  040%=      5-min Rain = 0
KPD1 112252Z 01013KT M03/M14 A3052 RMK A01 T10271143  RH  041%=      5-min Rain = 0
KPD1 112253Z 00014G20KT M03/M14 A3052 RMK A01 T10261142  RH  041%=      5-min Rain = 0
KPD1 112254Z 00016KT M03/M14 A3052 RMK A01 T10261141  RH  041%=      5-min Rain = 0
KPD1 112255Z 01017G25KT M03/M14 A3052 RMK A01 T10261141  RH  041%=      5-min Rain = 0
KPD1 112256Z 00018G23KT M03/M14 A3052 RMK A01 T10261141  RH  041%=      5-min Rain = 0
KPD1 112257Z 01019KT M03/M14 A3052 RMK A01 T10261140  RH  041%=      5-min Rain = 0
KPD1 112258Z 36019KT M03/M14 A3052 RMK A01 T10261140  RH  041%=      5-min Rain = 0
KPD1 112259Z 35015G20KT M03/M14 A3052 RMK A01 T10261139  RH  041%=      5-min Rain = 0
KPD1 112300Z 34015G21KT M03/M14 A3052 RMK A01 T10261139  RH  042%=      5-min Rain = 0
KPD1 112301Z 35014KT M03/M14 A3052 RMK A01 T10261139  RH  042%=      5-min Rain = 0
KPD1 112302Z 36015G21KT M03/M14 A3052 RMK A01 T10261138  RH  042%=      5-min Rain = 0
KPD1 112303Z 36015G20KT M03/M14 A3052 RMK A01 T10271139  RH  042%=      5-min Rain = 0
KPD1 112304Z 01016KT M03/M14 A3052 RMK A01 T10281139  RH  042%=      5-min Rain = 0
KPD1 112305Z 00016KT M03/M14 A3052 RMK A01 T10281139  RH  042%=      5-min Rain = 0
KPD1 112306Z 01018KT M03/M14 A3052 RMK A01 T10281139  RH  042%=      5-min Rain = 0
KPD1 112307Z 01017KT M03/M14 A3053 RMK A01 T10281139  RH  042%=      5-min Rain = 0
KPD1 112308Z 00015KT M03/M14 A3053 RMK A01 T10291140  RH  042%=      5-min Rain = 0
KPD1 112309Z 01015KT M03/M14 A3052 RMK A01 T10291139  RH  042%=      5-min Rain = 0
KPD1 112310Z 01013KT M03/M14 A3052 RMK A01 T10291139  RH  042%=      5-min Rain = 0
KPD1 112311Z 01013KT M03/M14 A3053 RMK A01 T10291138  RH  043%=      5-min Rain = 0
KPD1 112312Z 01018KT M03/M14 A3053 RMK A01 T10291138  RH  043%=      5-min Rain = 0
KPD1 112313Z 00011G18KT M03/M14 A3053 RMK A01 T10291138  RH  043%=      5-min Rain = 0
KPD1 112314Z 00013KT M03/M14 A3053 RMK A01 T10291138  RH  043%=      5-min Rain = 0
KPD1 112315Z 36012G17KT M03/M14 A3053 RMK A01 T10291137  RH  043%=      5-min Rain = 0
KPD1 112316Z 36015KT M03/M14 A3053 RMK A01 T10291137  RH  043%=      5-min Rain = 0
KPD1 112317Z 01015G21KT M03/M14 A3053 RMK A01 T10291137  RH  043%=      5-min Rain = 0
KPD1 112318Z 00012KT M03/M14 A3053 RMK A01 T10291137  RH  043%=      5-min Rain = 0
KPD1 112319Z 00013KT M03/M14 A3053 RMK A01 T10291137  RH  043%=      5-min Rain = 0
KPD1 112320Z 01013G19KT M03/M14 A3053 RMK A01 T10291137  RH  043%=      5-min Rain = 0
KPD1 112321Z 01013G19KT M03/M14 A3053 RMK A01 T10281136  RH  043%=      5-min Rain = 0
KPD1 112322Z 01014KT M03/M14 A3053 RMK A01 T10281137  RH  043%=      5-min Rain = 0
KPD1 112323Z 00014G19KT M03/M14 A3054 RMK A01 T10281137  RH  043%=      5-min Rain = 0
KPD1 112324Z 01012G17KT M03/M14 A3054 RMK A01 T10291137  RH  043%=      5-min Rain = 0
KPD1 112325Z 01012G17KT M03/M14 A3054 RMK A01 T10291137  RH  043%=      5-min Rain = 0
KPD1 112326Z 01014G20KT M03/M14 A3054 RMK A01 T10291138  RH  043%=      5-min Rain = 0
KPD1 112327Z 01015G20KT M03/M14 A3054 RMK A01 T10291138  RH  043%=      5-min Rain = 0
KPD1 112328Z 36013G18KT M03/M14 A3054 RMK A01 T10291138  RH  043%=      5-min Rain = 0
KPD1 112329Z 35015G22KT M03/M14 A3054 RMK A01 T10291137  RH  043%=      5-min Rain = 0
KPD1 112330Z 35015G20KT M03/M14 A3054 RMK A01 T10291138  RH  043%=      5-min Rain = 0
KPD1 112331Z 35014KT M03/M14 A3054 RMK A01 T10291138  RH  043%=      5-min Rain = 0
KPD1 112332Z 35012G17KT M03/M14 A3054 RMK A01 T10301139  RH  043%=      5-min Rain = 0
KPD1 112333Z 36012G18KT M03/M14 A3054 RMK A01 T10301139  RH  043%=      5-min Rain = 0
KPD1 112334Z 35013G19KT M03/M14 A3054 RMK A01 T10301139  RH  043%=      5-min Rain = 0
KPD1 112335Z 35014KT M03/M14 A3054 RMK A01 T10301139  RH  043%=      5-min Rain = 0
KPD1 112336Z 36015KT M03/M14 A3055 RMK A01 T10311140  RH  043%=      5-min Rain = 0
KPD1 112337Z 01009KT M03/M14 A3055 RMK A01 T10311140  RH  043%=      5-min Rain = 0
KPD1 112338Z 35012KT M03/M14 A3055 RMK A01 T10311140  RH  043%=      5-min Rain = 0
KPD1 112339Z 35010KT M03/M14 A3055 RMK A01 T10311140  RH  043%=      5-min Rain = 0
KPD1 112340Z 00010G15KT M03/M14 A3055 RMK A01 T10311139  RH  043%=      5-min Rain = 0
KPD1 112341Z 35010KT M03/M14 A3055 RMK A01 T10311139  RH  043%=      5-min Rain = 0
KPD1 112342Z 35014G21KT M03/M14 A3055 RMK A01 T10321139  RH  043%=      5-min Rain = 0
KPD1 112343Z 35014KT M03/M14 A3055 RMK A01 T10321140  RH  043%=      5-min Rain = 0
KPD1 112344Z 36012KT M03/M14 A3055 RMK A01 T10321140  RH  043%=      5-min Rain = 0
KPD1 112345Z 35012KT M03/M14 A3055 RMK A01 T10321139  RH  043%=      5-min Rain = 0
KPD1 112346Z 36012KT M03/M14 A3055 RMK A01 T10321139  RH  043%=      5-min Rain = 0
KPD1 112347Z 00010KT M03/M14 A3055 RMK A01 T10321140  RH  043%=      5-min Rain = 0
KPD1 112348Z 36010KT M03/M14 A3055 RMK A01 T10331140  RH  043%=      5-min Rain = 0
KPD1 112349Z 00011KT M03/M14 A3055 RMK A01 T10331140  RH  043%=      5-min Rain = 0
KPD1 112350Z 35011G19KT M03/M14 A3055 RMK A01 T10331141  RH  043%=      5-min Rain = 0
KPD1 112351Z 01012KT M03/M14 A3055 RMK A01 T10331141  RH  043%=      5-min Rain = 0
KPD1 112352Z 00015KT M03/M14 A3055 RMK A01 T10331141  RH  043%=      5-min Rain = 0
KPD1 112353Z 36015KT M03/M14 A3055 RMK A01 T10331141  RH  043%=      5-min Rain = 0
KPD1 112354Z 00013KT M03/M14 A3055 RMK A01 T10331141  RH  043%=      5-min Rain = 0
KPD1 112355Z 35010G15KT M03/M14 A3055 RMK A01 T10331142  RH  043%=      5-min Rain = 0
KPD1 112356Z 00010KT M03/M14 A3056 RMK A01 T10341142  RH  043%=      5-min Rain = 0
KPD1 112357Z 01010KT M03/M14 A3056 RMK A01 T10341141  RH  043%=      5-min Rain = 0
KPD1 112358Z 35011KT M03/M14 A3056 RMK A01 T10341141  RH  043%=      5-min Rain = 0
KPD1 112359Z 36009KT M03/M14 A3056 RMK A01 T10341141  RH  043%=      5-min Rain = 0
KPD1 120000Z 01010G16KT M04/M14 A3056 RMK A01 T10351141  RH  044%=      5-min Rain = 0
KPD1 120001Z 36011KT M04/M14 A3056 RMK A01 T10351141  RH  044%=      5-min Rain = 0
KPD1 120002Z 36010KT M04/M14 A3056 RMK A01 T10351141  RH  044%=      5-min Rain = 0
KPD1 120003Z 00012G18KT M04/M14 A3056 RMK A01 T10351141  RH  044%=      5-min Rain = 0
KPD1 120004Z 01011KT M04/M14 A3056 RMK A01 T10351141  RH  044%=      5-min Rain = 0
KPD1 120005Z 01012KT M04/M14 A3056 RMK A01 T10351141  RH  044%=      5-min Rain = 0
KPD1 120006Z 01014G19KT M04/M14 A3056 RMK A01 T10351142  RH  044%=      5-min Rain = 0
KPD1 120007Z 00012G17KT M04/M14 A3056 RMK A01 T10351142  RH  043%=      5-min Rain = 0
KPD1 120008Z 00012KT M04/M14 A3056 RMK A01 T10351142  RH  043%=      5-min Rain = 0
KPD1 120009Z 00012KT M04/M14 A3056 RMK A01 T10351142  RH  043%=      5-min Rain = 0
KPD1 120010Z 01012KT M04/M14 A3056 RMK A01 T10351142  RH  044%=      5-min Rain = 0
KPD1 120011Z 36010KT M04/M14 A3056 RMK A01 T10361142  RH  044%=      5-min Rain = 0
KPD1 120012Z 01012KT M04/M14 A3056 RMK A01 T10361142  RH  044%=      5-min Rain = 0
KPD1 120013Z 01012KT M04/M14 A3056 RMK A01 T10371143  RH  044%=      5-min Rain = 0
KPD1 120014Z 36015G21KT M04/M14 A3057 RMK A01 T10371142  RH  044%=      5-min Rain = 0
KPD1 120015Z 00012KT M04/M14 A3057 RMK A01 T10371143  RH  044%=      5-min Rain = 0
KPD1 120016Z 01011KT M04/M14 A3057 RMK A01 T10361143  RH  043%=      5-min Rain = 0
KPD1 120017Z 00010G15KT M04/M14 A3057 RMK A01 T10371143  RH  043%=      5-min Rain = 0
KPD1 120018Z 36014KT M04/M14 A3057 RMK A01 T10371143  RH  043%=      5-min Rain = 0
KPD1 120019Z 00012KT M04/M14 A3057 RMK A01 T10371143  RH  043%=      5-min Rain = 0
KPD1 120020Z 36011KT M04/M14 A3057 RMK A01 T10371143  RH  043%=      5-min Rain = 0
KPD1 120021Z 00010G15KT M04/M14 A3056 RMK A01 T10371143  RH  044%=      5-min Rain = 0
KPD1 120022Z 00013KT M04/M14 A3056 RMK A01 T10371142  RH  044%=      5-min Rain = 0
KPD1 120023Z 01011KT M04/M14 A3056 RMK A01 T10381143  RH  044%=      5-min Rain = 0
KPD1 120024Z 35010KT M04/M14 A3056 RMK A01 T10371142  RH  044%=      5-min Rain = 0
KPD1 120025Z 00011KT M04/M14 A3056 RMK A01 T10381143  RH  044%=      5-min Rain = 0
KPD1 120026Z 01013KT M04/M14 A3056 RMK A01 T10381142  RH  044%=      5-min Rain = 0
KPD1 120027Z 00011KT M04/M14 A3056 RMK A01 T10381142  RH  044%=      5-min Rain = 0
KPD1 120028Z 00011KT M04/M14 A3056 RMK A01 T10381142  RH  044%=      5-min Rain = 0
KPD1 120029Z 35009KT M04/M14 A3056 RMK A01 T10391142  RH  044%=      5-min Rain = 0
KPD1 120030Z 00010G16KT M04/M14 A3056 RMK A01 T10391142  RH  044%=      5-min Rain = 0
KPD1 120031Z 01011KT M04/M14 A3056 RMK A01 T10391142  RH  044%=      5-min Rain = 0
KPD1 120032Z 01013KT M04/M14 A3056 RMK A01 T10391142  RH  045%=      5-min Rain = 0
KPD1 120033Z 01012G17KT M04/M14 A3056 RMK A01 T10391142  RH  044%=      5-min Rain = 0
KPD1 120034Z 01013KT M04/M14 A3056 RMK A01 T10391143  RH  044%=      5-min Rain = 0
KPD1 120035Z 01015KT M04/M14 A3056 RMK A01 T10391143  RH  044%=      5-min Rain = 0
KPD1 120036Z 00013G18KT M04/M14 A3056 RMK A01 T10391143  RH  044%=      5-min Rain = 0
KPD1 120037Z 00012G17KT M04/M14 A3056 RMK A01 T10391143  RH  044%=      5-min Rain = 0
KPD1 120038Z 00015KT M04/M14 A3056 RMK A01 T10391144  RH  044%=      5-min Rain = 0
KPD1 120039Z 36010KT M04/M14 A3056 RMK A01 T10391143  RH  044%=      5-min Rain = 0
KPD1 120040Z 00013KT M04/M14 A3056 RMK A01 T10391144  RH  044%=      5-min Rain = 0
KPD1 120041Z 00014G19KT M04/M14 A3057 RMK A01 T10401144  RH  044%=      5-min Rain = 0
KPD1 120042Z 01014KT M04/M15 A3056 RMK A01 T10401145  RH  044%=      5-min Rain = 0
KPD1 120043Z 01014KT M04/M15 A3057 RMK A01 T10401145  RH  044%=      5-min Rain = 0
KPD1 120044Z 01013KT M04/M15 A3057 RMK A01 T10401146  RH  044%=      5-min Rain = 0
KPD1 120045Z 00014KT M04/M15 A3057 RMK A01 T10401147  RH  043%=      5-min Rain = 0
KPD1 120046Z 00014KT M04/M15 A3057 RMK A01 T10411147  RH  043%=      5-min Rain = 0
KPD1 120047Z 35015G20KT M04/M15 A3057 RMK A01 T10411147  RH  043%=      5-min Rain = 0
KPD1 120048Z 02015G20KT M04/M15 A3057 RMK A01 T10411148  RH  043%=      5-min Rain = 0
KPD1 120049Z 36015KT M04/M15 A3057 RMK A01 T10411148  RH  043%=      5-min Rain = 0
KPD1 120050Z 01017KT M04/M15 A3057 RMK A01 T10411149  RH  043%=      5-min Rain = 0
KPD1 120051Z 00014KT M04/M15 A3057 RMK A01 T10421149  RH  043%=      5-min Rain = 0
KPD1 120052Z 01015G21KT M04/M15 A3057 RMK A01 T10421149  RH  043%=      5-min Rain = 0
KPD1 120053Z 00015KT M04/M15 A3057 RMK A01 T10421150  RH  043%=      5-min Rain = 0
KPD1 120054Z 00014KT M04/M15 A3057 RMK A01 T10421150  RH  043%=      5-min Rain = 0
KPD1 120055Z 01015KT M04/M15 A3057 RMK A01 T10421150  RH  043%=      5-min Rain = 0
KPD1 120056Z 00015KT M04/M15 A3057 RMK A01 T10421150  RH  043%=      5-min Rain = 0
KPD1 120057Z 00014KT M04/M15 A3057 RMK A01 T10431151  RH  043%=      5-min Rain = 0
KPD1 120058Z 01012G18KT M04/M15 A3057 RMK A01 T10431150  RH  043%=      5-min Rain = 0
KPD1 120059Z 01013KT M04/M15 A3057 RMK A01 T10431150  RH  043%=      5-min Rain = 0
KPD1 120100Z 00011KT M04/M15 A3057 RMK A01 T10431150  RH  043%=      5-min Rain = 0
KPD1 120101Z 36013KT M04/M15 A3057 RMK A01 T10441150  RH  043%=      5-min Rain = 0
KPD1 120102Z 36012KT M04/M15 A3057 RMK A01 T10441150  RH  043%=      5-min Rain = 0
KPD1 120103Z 01011KT M04/M15 A3057 RMK A01 T10441150  RH  043%=      5-min Rain = 0
KPD1 120104Z 36011KT M04/M15 A3057 RMK A01 T10441150  RH  043%=      5-min Rain = 0
KPD1 120105Z 01012KT M04/M15 A3057 RMK A01 T10441150  RH  043%=      5-min Rain = 0
KPD1 120106Z 01015KT M04/M15 A3057 RMK A01 T10441150  RH  044%=      5-min Rain = 0
KPD1 120107Z 01013KT M04/M15 A3057 RMK A01 T10441150  RH  044%=      5-min Rain = 0
KPD1 120108Z 00012KT M04/M15 A3057 RMK A01 T10441150  RH  043%=      5-min Rain = 0
KPD1 120109Z 01014KT M04/M15 A3057 RMK A01 T10441150  RH  043%=      5-min Rain = 0
KPD1 120110Z 00011G16KT M04/M15 A3057 RMK A01 T10441150  RH  044%=      5-min Rain = 0
KPD1 120111Z 01014KT M05/M15 A3057 RMK A01 T10451150  RH  044%=      5-min Rain = 0
KPD1 120112Z 36012KT M05/M15 A3057 RMK A01 T10451150  RH  044%=      5-min Rain = 0
KPD1 120113Z 36010KT M05/M15 A3057 RMK A01 T10451150  RH  044%=      5-min Rain = 0
KPD1 120114Z 00009KT M05/M15 A3057 RMK A01 T10451150  RH  044%=      5-min Rain = 0
KPD1 120115Z 36012KT M05/M15 A3058 RMK A01 T10461150  RH  044%=      5-min Rain = 0
KPD1 120116Z 36012KT M05/M15 A3058 RMK A01 T10461149  RH  044%=      5-min Rain = 0
KPD1 120117Z 00007KT M05/M15 A3058 RMK A01 T10461150  RH  044%=      5-min Rain = 0
KPD1 120118Z 35010KT M05/M15 A3058 RMK A01 T10461149  RH  044%=      5-min Rain = 0
KPD1 120119Z 00010KT M05/M15 A3057 RMK A01 T10461149  RH  044%=      5-min Rain = 0
KPD1 120120Z 00009KT M05/M15 A3057 RMK A01 T10471149  RH  045%=      5-min Rain = 0
KPD1 120121Z 00009KT M05/M15 A3057 RMK A01 T10471149  RH  045%=      5-min Rain = 0
KPD1 120122Z 01009KT M05/M15 A3057 RMK A01 T10471149  RH  045%=      5-min Rain = 0
KPD1 120123Z 00009KT M05/M15 A3057 RMK A01 T10471149  RH  045%=      5-min Rain = 0
KPD1 120124Z 36010KT M05/M15 A3058 RMK A01 T10471149  RH  045%=      5-min Rain = 0
KPD1 120125Z 01010KT M05/M15 A3058 RMK A01 T10481149  RH  045%=      5-min Rain = 0
KPD1 120126Z 36008KT M05/M15 A3058 RMK A01 T10471148  RH  045%=      5-min Rain = 0
KPD1 120127Z 36008KT M05/M15 A3058 RMK A01 T10471148  RH  045%=      5-min Rain = 0
KPD1 120128Z 00007KT M05/M15 A3058 RMK A01 T10481148  RH  045%=      5-min Rain = 0
KPD1 120129Z 36006KT M05/M15 A3058 RMK A01 T10481148  RH  045%=      5-min Rain = 0
KPD1 120130Z 36008KT M05/M15 A3058 RMK A01 T10491148  RH  046%=      5-min Rain = 0
KPD1 120131Z 00008KT M05/M15 A3059 RMK A01 T10481148  RH  046%=      5-min Rain = 0
KPD1 120132Z 00010KT M05/M15 A3058 RMK A01 T10491148  RH  046%=      5-min Rain = 0
KPD1 120133Z 00008KT M05/M15 A3059 RMK A01 T10481148  RH  046%=      5-min Rain = 0
KPD1 120134Z 00009KT M05/M15 A3059 RMK A01 T10481148  RH  046%=      5-min Rain = 0
KPD1 120135Z 01010KT M05/M15 A3059 RMK A01 T10481148  RH  046%=      5-min Rain = 0
KPD1 120136Z 01010KT M05/M15 A3059 RMK A01 T10481148  RH  046%=      5-min Rain = 0
KPD1 120137Z 01011KT M05/M15 A3059 RMK A01 T10481148  RH  046%=      5-min Rain = 0
KPD1 120138Z 00011KT M05/M15 A3059 RMK A01 T10481147  RH  046%=      5-min Rain = 0
KPD1 120139Z 35009KT M05/M15 A3059 RMK A01 T10481148  RH  046%=      5-min Rain = 0
KPD1 120140Z 35010KT M05/M15 A3059 RMK A01 T10481148  RH  046%=      5-min Rain = 0
KPD1 120141Z 36010KT M05/M15 A3059 RMK A01 T10491148  RH  046%=      5-min Rain = 0
KPD1 120142Z 01012KT M05/M15 A3059 RMK A01 T10491147  RH  046%=      5-min Rain = 0
KPD1 120143Z 36010KT M05/M15 A3059 RMK A01 T10491147  RH  046%=      5-min Rain = 0
KPD1 120144Z 35007KT M05/M15 A3059 RMK A01 T10491147  RH  046%=      5-min Rain = 0
KPD1 120145Z 36010KT M05/M15 A3059 RMK A01 T10491147  RH  046%=      5-min Rain = 0
KPD1 120146Z 01011KT M05/M15 A3059 RMK A01 T10491147  RH  046%=      5-min Rain = 0
KPD1 120147Z 35010KT M05/M15 A3059 RMK A01 T10491147  RH  046%=      5-min Rain = 0
KPD1 120148Z 00010KT M05/M15 A3059 RMK A01 T10491146  RH  047%=      5-min Rain = 0
KPD1 120149Z 00010KT M05/M15 A3059 RMK A01 T10491146  RH  047%=      5-min Rain = 0
KPD1 120150Z 00009KT M05/M15 A3059 RMK A01 T10501147  RH  047%=      5-min Rain = 0
KPD1 120151Z 36007KT M05/M15 A3059 RMK A01 T10501146  RH  047%=      5-min Rain = 0
KPD1 120152Z 36009KT M05/M15 A3059 RMK A01 T10501146  RH  047%=      5-min Rain = 0
KPD1 120153Z 35008KT M05/M15 A3059 RMK A01 T10501146  RH  047%=      5-min Rain = 0
KPD1 120154Z 00007KT M05/M15 A3059 RMK A01 T10501146  RH  047%=      5-min Rain = 0
KPD1 120155Z 01008KT M05/M15 A3059 RMK A01 T10511146  RH  047%=      5-min Rain = 0
KPD1 120156Z 00008G13KT M05/M15 A3059 RMK A01 T10511146  RH  047%=      5-min Rain = 0
KPD1 120157Z 02010KT M05/M15 A306 RMK A01 T10511146  RH  047%=      5-min Rain = 0
KPD1 120158Z 00010G15KT M05/M15 A306 RMK A01 T10511146  RH  047%=      5-min Rain = 0
KPD1 120159Z 00010KT M05/M15 A306 RMK A01 T10511146  RH  047%=      5-min Rain = 0
KPD1 120200Z 01011KT M05/M15 A306 RMK A01 T10511146  RH  047%=      5-min Rain = 0
KPD1 120201Z 00013KT M05/M15 A306 RMK A01 T10511146  RH  047%=      5-min Rain = 0
KPD1 120202Z 36008KT M05/M15 A306 RMK A01 T10511146  RH  047%=      5-min Rain = 0
KPD1 120203Z 00007KT M05/M15 A306 RMK A01 T10511146  RH  047%=      5-min Rain = 0
KPD1 120204Z 00007G12KT M05/M15 A306 RMK A01 T10511146  RH  047%=      5-min Rain = 0
KPD1 120205Z 00008G13KT M05/M15 A306 RMK A01 T10521146  RH  048%=      5-min Rain = 0
KPD1 120206Z 00010KT M05/M15 A306 RMK A01 T10521146  RH  048%=      5-min Rain = 0
KPD1 120207Z 00010KT M05/M15 A306 RMK A01 T10521145  RH  048%=      5-min Rain = 0
KPD1 120208Z 00008KT M05/M15 A306 RMK A01 T10521146  RH  048%=      5-min Rain = 0
KPD1 120209Z 35009KT M05/M15 A306 RMK A01 T10521145  RH  048%=      5-min Rain = 0
KPD1 120210Z 01009G14KT M05/M15 A306 RMK A01 T10521145  RH  048%=      5-min Rain = 0
KPD1 120211Z 36011KT M05/M15 A306 RMK A01 T10521145  RH  048%=      5-min Rain = 0
KPD1 120212Z 36009KT M05/M15 A306 RMK A01 T10521145  RH  048%=      5-min Rain = 0
KPD1 120213Z 00011KT M05/M15 A306 RMK A01 T10521146  RH  048%=      5-min Rain = 0
KPD1 120214Z 01009G14KT M05/M15 A306 RMK A01 T10521146  RH  048%=      5-min Rain = 0
KPD1 120215Z 00007KT M05/M15 A306 RMK A01 T10531146  RH  048%=      5-min Rain = 0
KPD1 120216Z 36008KT M05/M15 A306 RMK A01 T10531146  RH  048%=      5-min Rain = 0
KPD1 120217Z 00007KT M05/M15 A306 RMK A01 T10531145  RH  048%=      5-min Rain = 0
KPD1 120218Z 01008KT M05/M15 A306 RMK A01 T10531145  RH  048%=      5-min Rain = 0
KPD1 120219Z 00009KT M05/M15 A306 RMK A01 T10531145  RH  049%=      5-min Rain = 0
KPD1 120220Z 00008KT M05/M15 A306 RMK A01 T10541145  RH  049%=      5-min Rain = 0
KPD1 120221Z 01010KT M05/M15 A306 RMK A01 T10541146  RH  049%=      5-min Rain = 0
KPD1 120222Z 35009KT M05/M15 A306 RMK A01 T10541146  RH  048%=      5-min Rain = 0
KPD1 120223Z 01009KT M05/M15 A306 RMK A01 T10541146  RH  048%=      5-min Rain = 0
KPD1 120224Z 00011KT M05/M15 A306 RMK A01 T10541146  RH  048%=      5-min Rain = 0
KPD1 120225Z 01009KT M05/M15 A306 RMK A01 T10541146  RH  048%=      5-min Rain = 0
KPD1 120226Z 00011KT M05/M15 A306 RMK A01 T10531146  RH  048%=      5-min Rain = 0
KPD1 120227Z 01011KT M05/M15 A306 RMK A01 T10541146  RH  048%=      5-min Rain = 0
KPD1 120228Z 00011KT M05/M15 A306 RMK A01 T10531146  RH  048%=      5-min Rain = 0
KPD1 120229Z 36010KT M05/M15 A306 RMK A01 T10531146  RH  048%=      5-min Rain = 0
KPD1 120230Z 36011KT M05/M15 A306 RMK A01 T10531146  RH  048%=      5-min Rain = 0
KPD1 120231Z 00011KT M05/M15 A306 RMK A01 T10531147  RH  048%=      5-min Rain = 0
KPD1 120232Z 36009KT M05/M15 A306 RMK A01 T10541147  RH  048%=      5-min Rain = 0
KPD1 120233Z 00008G13KT M05/M15 A306 RMK A01 T10541147  RH  048%=      5-min Rain = 0
KPD1 120234Z 00012KT M05/M15 A306 RMK A01 T10541146  RH  048%=      5-min Rain = 0
KPD1 120235Z 00012KT M05/M15 A306 RMK A01 T10541146  RH  048%=      5-min Rain = 0
KPD1 120236Z 00010KT M05/M15 A306 RMK A01 T10541146  RH  048%=      5-min Rain = 0
KPD1 120237Z 00011KT M05/M15 A306 RMK A01 T10541147  RH  048%=      5-min Rain = 0
KPD1 120238Z 01012KT M05/M15 A306 RMK A01 T10541147  RH  048%=      5-min Rain = 0
KPD1 120239Z 36013KT M06/M15 A306 RMK A01 T10551147  RH  048%=      5-min Rain = 0
KPD1 120240Z 01011KT M06/M15 A306 RMK A01 T10551147  RH  048%=      5-min Rain = 0
KPD1 120241Z 01010KT M06/M15 A306 RMK A01 T10551146  RH  048%=      5-min Rain = 0
KPD1 120242Z 36009KT M06/M15 A306 RMK A01 T10551146  RH  048%=      5-min Rain = 0
KPD1 120243Z 36009KT M06/M15 A306 RMK A01 T10551146  RH  049%=      5-min Rain = 0
KPD1 120244Z 01012KT M06/M15 A306 RMK A01 T10561147  RH  049%=      5-min Rain = 0
KPD1 120245Z 00013KT M06/M15 A306 RMK A01 T10561146  RH  049%=      5-min Rain = 0
KPD1 120246Z 36011KT M06/M15 A306 RMK A01 T10561146  RH  049%=      5-min Rain = 0
KPD1 120247Z 00011KT M06/M15 A306 RMK A01 T10551146  RH  049%=      5-min Rain = 0
KPD1 120248Z 00010KT M06/M15 A306 RMK A01 T10561146  RH  049%=      5-min Rain = 0
KPD1 120249Z 01010KT M06/M15 A306 RMK A01 T10561146  RH  049%=      5-min Rain = 0
KPD1 120250Z 00010KT M06/M15 A306 RMK A01 T10571146  RH  049%=      5-min Rain = 0
KPD1 120251Z 00011G17KT M06/M15 A306 RMK A01 T10571146  RH  049%=      5-min Rain = 0
KPD1 120252Z 35011KT M06/M15 A306 RMK A01 T10571146  RH  049%=      5-min Rain = 0
KPD1 120253Z 00012KT M06/M15 A306 RMK A01 T10561146  RH  049%=      5-min Rain = 0
KPD1 120254Z 00011KT M06/M15 A306 RMK A01 T10571146  RH  049%=      5-min Rain = 0
KPD1 120255Z 36011KT M06/M15 A306 RMK A01 T10571146  RH  049%=      5-min Rain = 0
KPD1 120256Z 01011G17KT M06/M15 A306 RMK A01 T10571147  RH  049%=      5-min Rain = 0
KPD1 120257Z 36010KT M06/M15 A306 RMK A01 T10571147  RH  049%=      5-min Rain = 0
KPD1 120258Z 36012KT M06/M15 A306 RMK A01 T10571147  RH  049%=      5-min Rain = 0
KPD1 120259Z 00011KT M06/M15 A306 RMK A01 T10571147  RH  049%=      5-min Rain = 0
KPD1 120300Z 00009KT M06/M15 A306 RMK A01 T10571147  RH  049%=      5-min Rain = 0
KPD1 120301Z 36010KT M06/M15 A306 RMK A01 T10581148  RH  049%=      5-min Rain = 0
KPD1 120302Z 00012KT M06/M15 A306 RMK A01 T10581148  RH  049%=      5-min Rain = 0
KPD1 120303Z 02010G15KT M06/M15 A306 RMK A01 T10571148  RH  049%=      5-min Rain = 0
KPD1 120304Z 36008KT M06/M15 A306 RMK A01 T10571148  RH  049%=      5-min Rain = 0
KPD1 120305Z 35007KT M06/M15 A306 RMK A01 T10581148  RH  049%=      5-min Rain = 0
KPD1 120306Z 35011G16KT M06/M15 A306 RMK A01 T10581148  RH  049%=      5-min Rain = 0
KPD1 120307Z 35010KT M06/M15 A306 RMK A01 T10591148  RH  049%=      5-min Rain = 0
KPD1 120308Z 01012KT M06/M15 A306 RMK A01 T10591148  RH  049%=      5-min Rain = 0
KPD1 120309Z 00011KT M06/M15 A306 RMK A01 T10591148  RH  049%=      5-min Rain = 0
KPD1 120310Z 01011KT M06/M15 A3059 RMK A01 T10591148  RH  049%=      5-min Rain = 0
KPD1 120311Z 36009KT M06/M15 A3059 RMK A01 T10591148  RH  049%=      5-min Rain = 0
KPD1 120312Z 00009KT M06/M15 A306 RMK A01 T10601148  RH  050%=      5-min Rain = 0
KPD1 120313Z 36009G14KT M06/M15 A306 RMK A01 T10601148  RH  050%=      5-min Rain = 0
KPD1 120314Z 36011KT M06/M15 A306 RMK A01 T10601148  RH  050%=      5-min Rain = 0
KPD1 120315Z 00013KT M06/M15 A306 RMK A01 T10601147  RH  050%=      5-min Rain = 0
KPD1 120316Z 01011KT M06/M15 A306 RMK A01 T10601147  RH  050%=      5-min Rain = 0
KPD1 120317Z 36007KT M06/M15 A306 RMK A01 T10601147  RH  050%=      5-min Rain = 0
KPD1 120318Z 35008G13KT M06/M15 A306 RMK A01 T10611147  RH  050%=      5-min Rain = 0
KPD1 120319Z 01009KT M06/M15 A306 RMK A01 T10611147  RH  051%=      5-min Rain = 0
KPD1 120320Z 00012KT M06/M15 A306 RMK A01 T10611147  RH  051%=      5-min Rain = 0
KPD1 120321Z 00009KT M06/M15 A306 RMK A01 T10621147  RH  051%=      5-min Rain = 0
KPD1 120322Z 35011KT M06/M15 A306 RMK A01 T10621147  RH  051%=      5-min Rain = 0
KPD1 120323Z 36009G14KT M06/M15 A306 RMK A01 T10621147  RH  051%=      5-min Rain = 0
KPD1 120324Z 36010KT M06/M15 A306 RMK A01 T10621147  RH  051%=      5-min Rain = 0
KPD1 120325Z 00013KT M06/M15 A306 RMK A01 T10621147  RH  051%=      5-min Rain = 0
KPD1 120326Z 36009KT M06/M15 A306 RMK A01 T10611147  RH  051%=      5-min Rain = 0
KPD1 120327Z 36009KT M06/M15 A306 RMK A01 T10621147  RH  051%=      5-min Rain = 0
KPD1 120328Z 35007KT M06/M15 A306 RMK A01 T10621147  RH  051%=      5-min Rain = 0
KPD1 120329Z 00010KT M06/M15 A306 RMK A01 T10631148  RH  051%=      5-min Rain = 0
KPD1 120330Z 00011KT M06/M15 A306 RMK A01 T10631147  RH  051%=      5-min Rain = 0
KPD1 120331Z 35010KT M06/M15 A306 RMK A01 T10631147  RH  051%=      5-min Rain = 0
KPD1 120332Z 36010KT M06/M15 A306 RMK A01 T10631148  RH  051%=      5-min Rain = 0
KPD1 120333Z 01009KT M06/M15 A306 RMK A01 T10631147  RH  051%=      5-min Rain = 0
KPD1 120334Z 36009KT M06/M15 A306 RMK A01 T10641148  RH  051%=      5-min Rain = 0
KPD1 120335Z 36009G15KT M06/M15 A306 RMK A01 T10641147  RH  052%=      5-min Rain = 0
KPD1 120336Z 00009KT M06/M15 A306 RMK A01 T10641147  RH  052%=      5-min Rain = 0
KPD1 120337Z 36008KT M06/M15 A306 RMK A01 T10641147  RH  052%=      5-min Rain = 0
KPD1 120338Z 00009G14KT M07/M15 A306 RMK A01 T10651147  RH  052%=      5-min Rain = 0
KPD1 120339Z 00009G15KT M07/M15 A306 RMK A01 T10651147  RH  052%=      5-min Rain = 0
KPD1 120340Z 01009KT M07/M15 A306 RMK A01 T10651147  RH  052%=      5-min Rain = 0
KPD1 120341Z 36012KT M07/M15 A306 RMK A01 T10651147  RH  052%=      5-min Rain = 0
KPD1 120342Z 36012KT M07/M15 A306 RMK A01 T10651147  RH  052%=      5-min Rain = 0
KPD1 120343Z 36010KT M07/M15 A306 RMK A01 T10651147  RH  052%=      5-min Rain = 0
KPD1 120344Z 36008KT M07/M15 A306 RMK A01 T10651147  RH  052%=      5-min Rain = 0
KPD1 120345Z 36012KT M07/M15 A306 RMK A01 T10651148  RH  052%=      5-min Rain = 0
KPD1 120346Z 36012KT M07/M15 A306 RMK A01 T10651147  RH  052%=      5-min Rain = 0
KPD1 120347Z 36009KT M07/M15 A306 RMK A01 T10651148  RH  052%=      5-min Rain = 0
KPD1 120348Z 36008KT M07/M15 A306 RMK A01 T10651147  RH  052%=      5-min Rain = 0
KPD1 120349Z 35009KT M07/M15 A306 RMK A01 T10661147  RH  052%=      5-min Rain = 0
KPD1 120350Z 36009KT M07/M15 A306 RMK A01 T10661147  RH  052%=      5-min Rain = 0
KPD1 120351Z 00008KT M07/M15 A306 RMK A01 T10661147  RH  052%=      5-min Rain = 0
KPD1 120352Z 00009KT M07/M15 A306 RMK A01 T10661147  RH  052%=      5-min Rain = 0
KPD1 120353Z 36009KT M07/M15 A306 RMK A01 T10661147  RH  053%=      5-min Rain = 0
KPD1 120354Z 00010G15KT M07/M15 A306 RMK A01 T10661147  RH  053%=      5-min Rain = 0
KPD1 120355Z 00011KT M07/M15 A306 RMK A01 T10661147  RH  053%=      5-min Rain = 0
KPD1 120356Z 00009KT M07/M15 A306 RMK A01 T10671147  RH  053%=      5-min Rain = 0
KPD1 120357Z 00012KT M07/M15 A306 RMK A01 T10661147  RH  053%=      5-min Rain = 0
KPD1 120358Z 01010KT M07/M15 A3061 RMK A01 T10661147  RH  052%=      5-min Rain = 0
KPD1 120359Z 00012KT M07/M15 A3061 RMK A01 T10661147  RH  053%=      5-min Rain = 0
KPD1 120400Z 01009KT M07/M15 A3061 RMK A01 T10671147  RH  053%=      5-min Rain = 0
KPD1 120401Z 00008KT M07/M15 A3061 RMK A01 T10671147  RH  053%=      5-min Rain = 0
KPD1 120402Z 00008KT M07/M15 A3061 RMK A01 T10671148  RH  053%=      5-min Rain = 0
KPD1 120403Z 00009KT M07/M15 A3061 RMK A01 T10671147  RH  053%=      5-min Rain = 0
KPD1 120404Z 00009KT M07/M15 A3061 RMK A01 T10681147  RH  053%=      5-min Rain = 0
KPD1 120405Z 00012KT M07/M15 A306 RMK A01 T10681147  RH  053%=      5-min Rain = 0
KPD1 120406Z 36012KT M07/M15 A306 RMK A01 T10681148  RH  053%=      5-min Rain = 0
KPD1 120407Z 01013KT M07/M15 A306 RMK A01 T10681148  RH  053%=      5-min Rain = 0
KPD1 120408Z 00013KT M07/M15 A306 RMK A01 T10681148  RH  053%=      5-min Rain = 0
KPD1 120409Z 35012KT M07/M15 A3061 RMK A01 T10681148  RH  053%=      5-min Rain = 0
KPD1 120410Z 00011KT M07/M15 A3061 RMK A01 T10671148  RH  053%=      5-min Rain = 0
KPD1 120411Z 36010KT M07/M15 A3061 RMK A01 T10681148  RH  053%=      5-min Rain = 0
KPD1 120412Z 00009KT M07/M15 A3061 RMK A01 T10681148  RH  053%=      5-min Rain = 0
KPD1 120413Z 01010KT M07/M15 A3061 RMK A01 T10681148  RH  053%=      5-min Rain = 0
KPD1 120414Z 00012KT M07/M15 A3061 RMK A01 T10681148  RH  053%=      5-min Rain = 0
KPD1 120415Z 00007G12KT M07/M15 A3061 RMK A01 T10681148  RH  053%=      5-min Rain = 0
KPD1 120416Z 00011KT M07/M15 A306 RMK A01 T10681148  RH  053%=      5-min Rain = 0
KPD1 120417Z 00012KT M07/M15 A306 RMK A01 T10691149  RH  053%=      5-min Rain = 0
KPD1 120418Z 01011KT M07/M15 A306 RMK A01 T10691149  RH  053%=      5-min Rain = 0
KPD1 120419Z 01008KT M07/M15 A306 RMK A01 T10691149  RH  053%=      5-min Rain = 0
KPD1 120420Z 36007KT M07/M15 A306 RMK A01 T10691149  RH  053%=      5-min Rain = 0
KPD1 120421Z 01007KT M07/M15 A3061 RMK A01 T10701149  RH  053%=      5-min Rain = 0
KPD1 120422Z 00011KT M07/M15 A3061 RMK A01 T10701148  RH  054%=      5-min Rain = 0
KPD1 120423Z 01013KT M07/M15 A3061 RMK A01 T10701149  RH  053%=      5-min Rain = 0
KPD1 120424Z 00010KT M07/M15 A3061 RMK A01 T10701149  RH  053%=      5-min Rain = 0
KPD1 120425Z 00010KT M07/M15 A3061 RMK A01 T10701149  RH  053%=      5-min Rain = 0
KPD1 120426Z 01007G12KT M07/M15 A3061 RMK A01 T10701149  RH  053%=      5-min Rain = 0
KPD1 120427Z 01010G15KT M07/M15 A3061 RMK A01 T10701149  RH  053%=      5-min Rain = 0
KPD1 120428Z 01010KT M07/M15 A3061 RMK A01 T10701149  RH  053%=      5-min Rain = 0
KPD1 120429Z 00010KT M07/M15 A3061 RMK A01 T10701150  RH  053%=      5-min Rain = 0
KPD1 120430Z 02010G15KT M07/M15 A3061 RMK A01 T10701150  RH  053%=      5-min Rain = 0
KPD1 120431Z 01007KT M07/M15 A306 RMK A01 T10711150  RH  053%=      5-min Rain = 0
KPD1 120432Z 00010KT M07/M15 A306 RMK A01 T10711150  RH  053%=      5-min Rain = 0
KPD1 120433Z 00010KT M07/M15 A306 RMK A01 T10711150  RH  053%=      5-min Rain = 0
KPD1 120434Z 01009G14KT M07/M15 A306 RMK A01 T10711150  RH  054%=      5-min Rain = 0
KPD1 120435Z 01007KT M07/M15 A306 RMK A01 T10721150  RH  054%=      5-min Rain = 0
KPD1 120436Z 01008KT M07/M15 A306 RMK A01 T10721150  RH  054%=      5-min Rain = 0
KPD1 120437Z 02007KT M07/M15 A306 RMK A01 T10721149  RH  054%=      5-min Rain = 0
KPD1 120438Z 36010KT M07/M15 A306 RMK A01 T10731149  RH  054%=      5-min Rain = 0
KPD1 120439Z 01010KT M07/M15 A306 RMK A01 T10721149  RH  054%=      5-min Rain = 0
KPD1 120440Z 01010KT M07/M15 A306 RMK A01 T10731149  RH  054%=      5-min Rain = 0
KPD1 120441Z 02008KT M07/M15 A306 RMK A01 T10731149  RH  054%=      5-min Rain = 0
KPD1 120442Z 01007KT M07/M15 A306 RMK A01 T10731149  RH  054%=      5-min Rain = 0
KPD1 120443Z 36008KT M07/M15 A306 RMK A01 T10731149  RH  055%=      5-min Rain = 0
KPD1 120444Z 00007KT M07/M15 A3061 RMK A01 T10731149  RH  055%=      5-min Rain = 0
KPD1 120445Z 01007KT M07/M15 A3061 RMK A01 T10741150  RH  055%=      5-min Rain = 0
KPD1 120446Z 00008KT M07/M15 A3061 RMK A01 T10741150  RH  055%=      5-min Rain = 0
KPD1 120447Z 35006KT M07/M15 A3061 RMK A01 T10741150  RH  055%=      5-min Rain = 0
KPD1 120448Z 01006KT M07/M15 A3061 RMK A01 T10741150  RH  055%=      5-min Rain = 0
KPD1 120449Z 01007KT M07/M15 A3061 RMK A01 T10741150  RH  055%=      5-min Rain = 0
KPD1 120450Z 01005KT M07/M15 A3061 RMK A01 T10741150  RH  055%=      5-min Rain = 0
KPD1 120451Z 00007KT M08/M15 A3061 RMK A01 T10751150  RH  055%=      5-min Rain = 0
KPD1 120452Z 01008KT M08/M15 A3061 RMK A01 T10751150  RH  055%=      5-min Rain = 0
KPD1 120453Z 36007KT M08/M15 A3061 RMK A01 T10751150  RH  055%=      5-min Rain = 0
KPD1 120454Z 01008KT M08/M15 A3061 RMK A01 T10751150  RH  055%=      5-min Rain = 0
KPD1 120455Z 00005KT M08/M15 A3061 RMK A01 T10751150  RH  055%=      5-min Rain = 0
KPD1 120456Z 00005KT M08/M15 A3061 RMK A01 T10751150  RH  055%=      5-min Rain = 0
KPD1 120457Z 02004KT M08/M15 A3061 RMK A01 T10761150  RH  055%=      5-min Rain = 0
KPD1 120458Z 01006KT M08/M15 A3061 RMK A01 T10771150  RH  056%=      5-min Rain = 0
KPD1 120459Z 01005KT M08/M15 A3061 RMK A01 T10771150  RH  056%=      5-min Rain = 0
KPD1 120500Z 01006KT M08/M15 A3061 RMK A01 T10771150  RH  056%=      5-min Rain = 0
KPD1 120501Z 01007KT M08/M15 A3061 RMK A01 T10771150  RH  056%=      5-min Rain = 0
KPD1 120502Z 02007KT M08/M15 A3061 RMK A01 T10771150  RH  056%=      5-min Rain = 0
KPD1 120503Z 00006KT M08/M15 A3061 RMK A01 T10771150  RH  056%=      5-min Rain = 0
KPD1 120504Z 00005KT M08/M15 A3061 RMK A01 T10771150  RH  056%=      5-min Rain = 0
KPD1 120505Z 00005KT M08/M15 A3061 RMK A01 T10771150  RH  056%=      5-min Rain = 0
KPD1 120506Z 36006KT M08/M15 A3061 RMK A01 T10771150  RH  056%=      5-min Rain = 0
KPD1 120507Z 35003KT M08/M15 A3061 RMK A01 T10781150  RH  056%=      5-min Rain = 0
KPD1 120508Z 00004KT M08/M15 A3061 RMK A01 T10791151  RH  056%=      5-min Rain = 0
KPD1 120509Z 36003KT M08/M15 A3061 RMK A01 T10791150  RH  056%=      5-min Rain = 0
KPD1 120510Z 01004KT M08/M15 A3061 RMK A01 T10791150  RH  057%=      5-min Rain = 0
KPD1 120511Z 01006KT M08/M15 A3061 RMK A01 T10791150  RH  057%=      5-min Rain = 0
KPD1 120512Z 36006KT M08/M15 A3061 RMK A01 T10801151  RH  057%=      5-min Rain = 0
KPD1 120513Z 01005KT M08/M15 A3061 RMK A01 T10801151  RH  057%=      5-min Rain = 0
KPD1 120514Z 35005KT M08/M15 A3061 RMK A01 T10801151  RH  057%=      5-min Rain = 0
KPD1 120515Z 36005KT M08/M15 A3061 RMK A01 T10801151  RH  057%=      5-min Rain = 0
KPD1 120516Z 00005KT M08/M15 A3061 RMK A01 T10801151  RH  057%=      5-min Rain = 0
KPD1 120517Z 00007KT M08/M15 A3061 RMK A01 T10811151  RH  057%=      5-min Rain = 0
KPD1 120518Z 35006KT M08/M15 A3061 RMK A01 T10811151  RH  057%=      5-min Rain = 0
KPD1 120519Z 35007KT M08/M15 A3061 RMK A01 T10811151  RH  057%=      5-min Rain = 0
KPD1 120520Z 36004KT M08/M15 A3061 RMK A01 T10801150  RH  057%=      5-min Rain = 0
KPD1 120521Z 35006KT M08/M15 A3061 RMK A01 T10801150  RH  057%=      5-min Rain = 0
KPD1 120522Z 35006KT M08/M15 A3061 RMK A01 T10811151  RH  057%=      5-min Rain = 0
KPD1 120523Z 35005KT M08/M15 A3061 RMK A01 T10811151  RH  057%=      5-min Rain = 0
KPD1 120524Z 36006KT M08/M15 A3061 RMK A01 T10811151  RH  057%=      5-min Rain = 0
KPD1 120525Z 00004KT M08/M15 A3061 RMK A01 T10811151  RH  057%=      5-min Rain = 0
KPD1 120526Z 01006KT M08/M15 A3061 RMK A01 T10811151  RH  057%=      5-min Rain = 0
KPD1 120527Z 01005KT M08/M15 A3061 RMK A01 T10811151  RH  057%=      5-min Rain = 0
KPD1 120528Z 36005KT M08/M15 A3061 RMK A01 T10821151  RH  058%=      5-min Rain = 0
KPD1 120529Z 35005KT M08/M15 A3061 RMK A01 T10821151  RH  058%=      5-min Rain = 0
KPD1 120530Z 00004KT M08/M15 A3061 RMK A01 T10831151  RH  058%=      5-min Rain = 0
KPD1 120531Z 36006KT M08/M15 A3061 RMK A01 T10831151  RH  058%=      5-min Rain = 0
KPD1 120532Z 01005KT M08/M15 A3061 RMK A01 T10831150  RH  058%=      5-min Rain = 0
KPD1 120533Z 01003KT M08/M15 A3061 RMK A01 T10831151  RH  058%=      5-min Rain = 0
KPD1 120534Z 01004KT M08/M15 A3061 RMK A01 T10831151  RH  058%=      5-min Rain = 0
KPD1 120535Z 01004KT M08/M15 A3061 RMK A01 T10831151  RH  058%=      5-min Rain = 0
KPD1 120536Z 01004KT M08/M15 A3061 RMK A01 T10831151  RH  058%=      5-min Rain = 0
KPD1 120537Z 01002KT M08/M15 A3061 RMK A01 T10831151  RH  058%=      5-min Rain = 0
KPD1 120538Z 00004KT M08/M15 A3062 RMK A01 T10831151  RH  058%=      5-min Rain = 0
KPD1 120539Z 01004KT M08/M15 A3062 RMK A01 T10841151  RH  058%=      5-min Rain = 0
KPD1 120540Z 01005KT M08/M15 A3062 RMK A01 T10841151  RH  058%=      5-min Rain = 0
KPD1 120541Z 36005KT M08/M15 A3062 RMK A01 T10841151  RH  058%=      5-min Rain = 0
KPD1 120542Z 36006KT M08/M15 A3061 RMK A01 T10841151  RH  058%=      5-min Rain = 0
KPD1 120543Z 00007KT M08/M15 A3061 RMK A01 T10841151  RH  059%=      5-min Rain = 0
KPD1 120544Z 00005KT M09/M15 A3061 RMK A01 T10851151  RH  059%=      5-min Rain = 0
KPD1 120545Z 01006KT M09/M15 A3061 RMK A01 T10851151  RH  059%=      5-min Rain = 0
KPD1 120546Z 36006KT M09/M15 A3061 RMK A01 T10851151  RH  059%=      5-min Rain = 0
KPD1 120547Z 00007KT M09/M15 A3061 RMK A01 T10851151  RH  059%=      5-min Rain = 0
KPD1 120548Z 01008KT M08/M15 A3061 RMK A01 T10841151  RH  059%=      5-min Rain = 0
KPD1 120549Z 01006KT M08/M15 A3061 RMK A01 T10841151  RH  059%=      5-min Rain = 0
KPD1 120550Z 01005KT M09/M15 A3061 RMK A01 T10851151  RH  059%=      5-min Rain = 0
KPD1 120551Z 01005KT M09/M15 A3061 RMK A01 T10851151  RH  059%=      5-min Rain = 0
KPD1 120552Z 01006KT M09/M15 A3061 RMK A01 T10851151  RH  059%=      5-min Rain = 0
KPD1 120553Z 01006KT M09/M15 A3061 RMK A01 T10851151  RH  059%=      5-min Rain = 0
KPD1 120554Z 00005KT M09/M15 A3061 RMK A01 T10851151  RH  059%=      5-min Rain = 0
KPD1 120555Z 01006KT M09/M15 A3061 RMK A01 T10851151  RH  059%=      5-min Rain = 0
KPD1 120556Z 00005KT M09/M15 A3061 RMK A01 T10861151  RH  059%=      5-min Rain = 0
KPD1 120557Z 01006KT M09/M15 A3061 RMK A01 T10861151  RH  059%=      5-min Rain = 0
KPD1 120558Z 00005KT M09/M15 A3061 RMK A01 T10861151  RH  059%=      5-min Rain = 0
KPD1 120559Z 00006KT M09/M15 A3061 RMK A01 T10861151  RH  060%=      5-min Rain = 0

Page generated in 0.1224 seconds.